Flight Track Log - Related Links

Times and Time Zones

All times are in EDT time to prevent confusion due to time zone crossing. See the UAL139 flight status page for this flight to view local times or setup timezone preferences in your user account.

Time Position Orientation Groundspeed Altitude Reporting Facility
EDT Latitude Longitude Course Direction KTS MPH feet Rate Location/Type
Sun 04:40:45 PM 39.8570 -104.6750 351° North  Level FlightAware ADS-B
Sun 05:02:00 PM 40.1072 -105.0024 276° West  Level Estimated
Sun 05:02:43 PM 39.8830 -104.6960 276° West 135 155 5,100  Level FlightAware ADS-B
Sun 05:03:03 PM 39.8670 -104.6960 180° South 191 220 5,100 900 Level FlightAware ADS-B
Sun 05:03:23 PM 39.8480 -104.6970 182° South 209 241 5,700 1,833 Climbing FlightAware ADS-B
Sun 05:03:39 PM 39.8320 -104.6990 185° South 215 247 6,200 1,600 Climbing FlightAware ADS-B
Sun 05:03:53 PM 39.8180 -104.7030 192° South 229 264 6,500 1,167 Climbing FlightAware ADS-B
Sun 05:04:15 PM 39.7950 -104.7110 195° South 248 285 6,900 1,286 Climbing FlightAware ADS-B
Sun 05:04:35 PM 39.7710 -104.7200 196° South 269 310 7,400 1,650 Climbing FlightAware ADS-B
Sun 05:04:55 PM 39.7470 -104.7290 196° South 283 326 8,000 1,846 Climbing FlightAware ADS-B
Sun 05:05:01 PM 39.7400 -104.7340 209° Southwest 286 329 8,200 2,571 Climbing FlightAware ADS-B
Sun 05:05:09 PM 39.7320 -104.7440 224° Southwest 287 330 8,600 3,000 Climbing FlightAware ADS-B
Sun 05:05:17 PM 39.7260 -104.7550 235° Southwest 289 333 9,000 2,625 Climbing FlightAware ADS-B
Sun 05:05:25 PM 39.7220 -104.7690 250° West 292 336 9,300 2,625 Climbing FlightAware ADS-B
Sun 05:05:33 PM 39.7200 -104.7830 259° West 294 338 9,700 1,941 Climbing FlightAware ADS-B
Sun 05:05:59 PM 39.7220 -104.8300 273° West 315 362 10,400 1,300 Climbing FlightAware ADS-B
Sun 05:06:33 PM 39.7380 -104.8880 290° West 342 394 11,000 1,750 Climbing FlightAware ADS-B
Sun 05:07:11 PM 39.7620 -104.9680 291° West 353 406 12,500 2,333 Climbing FlightAware ADS-B
Sun 05:07:45 PM 39.7830 -105.0360 292° West 359 413 13,800 2,174 Climbing FlightAware ADS-B
Sun 05:08:20 PM 39.8040 -105.1060 291° West 369 425 15,000 1,886 Climbing FlightAware ADS-B
Sun 05:08:55 PM 39.8260 -105.1800 291° West 379 436 16,000 1,913 Climbing FlightAware ADS-B
Sun 05:09:29 PM 39.8430 -105.2560 286° West 385 443 17,200 1,875 Climbing FlightAware ADS-B
Sun 05:09:59 PM 39.8620 -105.3050 297° West 386 444 18,000 2,000 Climbing FlightAware ADS-B
Sun 05:10:41 PM 39.9060 -105.4010 301° West 390 449 19,600 2,066 Climbing FlightAware ADS-B
Sun 05:11:00 PM 39.9220 -105.4370 300° West 392 451 20,100 1,773 Climbing FlightAware ADS-B
Sun 05:11:25 PM 39.9390 -105.4960 291° West 395 455 20,900 1,652 Climbing FlightAware ADS-B
Sun 05:12:09 PM 39.9330 -105.5980 266° West 405 466 22,000 1,537 Climbing FlightAware ADS-B
Sun 05:12:47 PM 39.9030 -105.6850 246° West 409 471 23,000 1,588 Climbing FlightAware ADS-B
Sun 05:13:17 PM 39.8880 -105.7560 255° West 412 474 23,800 1,444 Climbing FlightAware ADS-B
Sun 05:13:41 PM 39.8670 -105.8100 243° Southwest 421 484 24,300 1,320 Climbing FlightAware ADS-B
Sun 05:14:07 PM 39.8410 -105.8660 239° Southwest 421 484 24,900 1,258 Climbing FlightAware ADS-B
Sun 05:14:43 PM 39.8260 -105.9530 257° West 422 486 25,600 1,000 Climbing FlightAware ADS-B
Sun 05:15:19 PM 39.8360 -106.0290 280° West 428 493 26,100 828 Climbing FlightAware ADS-B
Sun 05:15:41 PM 39.8620 -106.0930 298° West 435 501 26,400 857 Climbing FlightAware ADS-B
Sun 05:16:15 PM 39.9020 -106.1660 306° West 443 510 26,900 831 Climbing FlightAware ADS-B
Sun 05:16:46 PM 39.9280 -106.2330 297° West 452 520 27,300 706 Climbing FlightAware ADS-B
Sun 05:17:23 PM 39.9630 -106.3340 294° West 464 534 27,700 507 Climbing FlightAware ADS-B
Sun 05:17:57 PM 39.9920 -106.4220 293° West 475 547 27,900 429 Climbing FlightAware ADS-B
Sun 05:18:33 PM 40.0130 -106.5230 285° West 487 560 28,200 857 Climbing FlightAware ADS-B
Sun 05:19:07 PM 40.0280 -106.6220 281° West 486 559 28,900 1,417 Climbing FlightAware ADS-B
Sun 05:19:45 PM 40.0430 -106.7290 280° West 480 552 29,900 1,297 Climbing FlightAware ADS-B
Sun 05:20:21 PM 40.0580 -106.8330 281° West 481 554 30,500 794 Climbing FlightAware ADS-B
Sun 05:20:53 PM 40.0770 -106.9210 286° West 486 559 30,800 706 Climbing FlightAware ADS-B
Sun 05:21:29 PM 40.1040 -107.0200 290° West 492 566 31,300 411 Climbing FlightAware ADS-B
Sun 05:22:06 PM 40.1200 -107.1110 283° West 492 566 31,300 1,000 Level FlightAware ADS-B
Sun 05:22:41 PM 40.1370 -107.2250 281° West 493 567 32,500 1,522 Climbing FlightAware ADS-B
Sun 05:23:13 PM 40.1490 -107.3090 281° West 492 566 33,000 971 Climbing FlightAware ADS-B
Sun 05:23:49 PM 40.1650 -107.4280 280° West 492 566 33,600 1,040 Climbing FlightAware ADS-B
Sun 05:24:28 PM 40.1790 -107.5370 280° West 490 564 34,300 1,083 Climbing FlightAware ADS-B
Sun 05:25:01 PM 40.1910 -107.6290 280° West 487 560 34,900 1,014 Climbing FlightAware ADS-B
Sun 05:25:39 PM 40.2060 -107.7460 280° West 485 558 35,500 930 Climbing FlightAware ADS-B
Sun 05:26:12 PM 40.2170 -107.8330 279° West 482 555 36,000 411 Climbing FlightAware ADS-B
Sun 05:26:52 PM 40.2320 -107.9460 280° West 479 551 36,000  Level FlightAware ADS-B
Sun 05:27:25 PM 40.2440 -108.0390 280° West 478 550 36,000  Level FlightAware ADS-B
Sun 05:28:05 PM 40.2590 -108.1600 279° West 479 551 36,000  Level FlightAware ADS-B
Sun 05:28:43 PM 40.2730 -108.2740 279° West 478 550 36,000  Level FlightAware ADS-B
Sun 05:29:17 PM 40.2840 -108.3600 280° West 478 550 36,000  Level FlightAware ADS-B
Sun 05:29:51 PM 40.2970 -108.4670 279° West 479 551 36,000  Level FlightAware ADS-B
Sun 05:30:27 PM 40.3090 -108.5700 279° West 478 550 36,000  Level FlightAware ADS-B
Sun 05:31:06 PM 40.3210 -108.6650 279° West 479 551 36,000  Level FlightAware ADS-B
Sun 05:31:42 PM 40.3330 -108.7690 279° West 480 552 36,000  Level FlightAware ADS-B
Sun 05:32:26 PM 40.3500 -108.9100 279° West 480 552 36,000  Level FlightAware ADS-B
Sun 05:33:00 PM 40.3620 -109.0080 279° West 480 552 36,000  Level FlightAware ADS-B
Sun 05:33:35 PM 40.3710 -109.0900 278° West 479 551 36,000  Level FlightAware ADS-B
Sun 05:34:07 PM 40.3840 -109.2030 279° West 480 552 36,000  Level FlightAware ADS-B
Sun 05:34:44 PM 40.3940 -109.2850 279° West 480 552 36,000  Level FlightAware ADS-B
Sun 05:35:17 PM 40.4050 -109.3830 278° West 480 552 36,000  Level FlightAware ADS-B
Sun 05:35:55 PM 40.4180 -109.4970 279° West 481 554 36,000  Level FlightAware ADS-B
Sun 05:36:32 PM 40.4300 -109.6000 279° West 481 554 36,000  Level FlightAware ADS-B
Sun 05:37:48 PM 40.4410 -109.7030 278° West 481 554 36,000  Level FlightAware ADS-B
Sun 05:38:26 PM 40.4510 -109.7970 278° West 481 554 36,000  Level FlightAware ADS-B
Sun 05:38:58 PM 40.4770 -110.0270 279° West 481 554 36,000  Level FlightAware ADS-B
Sun 05:39:35 PM 40.4890 -110.1420 278° West 481 554 36,000  Level FlightAware ADS-B
Sun 05:40:09 PM 40.5004 -110.2480 278° West 482 555 36,000  Level FlightAware ADS-B
Sun 05:40:39 PM 40.5096 -110.3350 278° West 481 554 36,000  Level FlightAware ADS-B
Sun 05:41:09 PM 40.5188 -110.4220 278° West 478 550 36,000  Level FlightAware ADS-B
Sun 05:41:40 PM 40.5279 -110.5090 278° West 477 549 36,000  Level FlightAware ADS-B
Sun 05:42:10 PM 40.5369 -110.5970 278° West 477 549 36,000  Level FlightAware ADS-B
Sun 05:42:41 PM 40.5462 -110.6870 278° West 477 549 36,000  Level FlightAware ADS-B
Sun 05:43:12 PM 40.5551 -110.7740 278° West 477 549 36,000  Level FlightAware ADS-B
Sun 05:43:42 PM 40.5639 -110.8610 278° West 478 550 36,000  Level FlightAware ADS-B
Sun 05:44:12 PM 40.5726 -110.9480 278° West 478 550 36,000  Level FlightAware ADS-B
Sun 05:44:42 PM 40.5812 -111.0340 278° West 478 550 36,000  Level FlightAware ADS-B
Sun 05:45:12 PM 40.5897 -111.1210 277° West 479 551 36,000  Level FlightAware ADS-B
Sun 05:45:43 PM 40.5984 -111.2090 277° West 479 551 36,000  Level FlightAware ADS-B
Sun 05:46:14 PM 40.6070 -111.2980 277° West 480 552 36,000  Level FlightAware ADS-B
Sun 05:46:45 PM 40.6156 -111.3880 277° West 480 552 36,000  Level FlightAware ADS-B
Sun 05:47:16 PM 40.6241 -111.4760 277° West 480 552 36,000  Level FlightAware ADS-B
Sun 05:47:46 PM 40.6324 -111.5640 277° West 480 552 36,000  Level FlightAware ADS-B
Sun 05:48:16 PM 40.6407 -111.6510 277° West 480 552 36,000  Level FlightAware ADS-B
Sun 05:48:47 PM 40.6490 -111.7400 277° West 480 552 36,000  Level FlightAware ADS-B
Sun 05:49:17 PM 40.6571 -111.8280 277° West 479 551 36,000  Level FlightAware ADS-B
Sun 05:49:48 PM 40.6651 -111.9150 277° West 479 551 36,000  Level FlightAware ADS-B
Sun 05:50:18 PM 40.6730 -112.0020 277° West 478 550 36,000  Level FlightAware ADS-B
Sun 05:50:49 PM 40.6810 -112.0910 277° West 478 550 36,000  Level FlightAware ADS-B
Sun 05:51:21 PM 40.6894 -112.1840 277° West 479 551 36,000  Level FlightAware ADS-B
Sun 05:51:53 PM 40.6976 -112.2770 277° West 480 552 36,000  Level FlightAware ADS-B
Sun 05:52:23 PM 40.7053 -112.3650 277° West 481 554 36,000  Level FlightAware ADS-B
Sun 05:52:55 PM 40.7133 -112.4570 277° West 482 555 36,000  Level FlightAware ADS-B
Sun 05:53:12 PM 40.7170 -112.5060 276° West 482 555 36,000  Level FlightAware ADS-B
Sun 05:53:43 PM 40.7203 -112.5970 273° West 482 555 36,000  Level FlightAware ADS-B
Sun 05:54:15 PM 40.7212 -112.6910 271° West 482 555 36,000  Level FlightAware ADS-B
Sun 05:54:45 PM 40.7220 -112.7790 271° West 482 555 36,000  Level FlightAware ADS-B
Sun 05:55:16 PM 40.7227 -112.8700 271° West 481 554 36,000  Level FlightAware ADS-B
Sun 05:55:47 PM 40.7233 -112.9600 271° West 481 554 36,000  Level FlightAware ADS-B
Sun 05:56:17 PM 40.7239 -113.0490 271° West 482 555 36,000  Level FlightAware ADS-B
Sun 05:56:49 PM 40.7245 -113.1430 271° West 482 555 36,000  Level FlightAware ADS-B
Sun 05:57:20 PM 40.7249 -113.2340 270° West 482 555 36,000  Level FlightAware ADS-B
Sun 05:57:59 PM 40.7254 -113.3470 270° West 482 555 36,000  Level FlightAware ADS-B
Sun 05:58:29 PM 40.7257 -113.4360 270° West 481 554 36,000  Level FlightAware ADS-B
Sun 05:59:06 PM 40.7259 -113.5430 270° West 481 554 36,000  Level FlightAware ADS-B
Sun 05:59:37 PM 40.7260 -113.6340 270° West 482 555 36,000  Level FlightAware ADS-B
Sun 06:00:08 PM 40.7261 -113.7250 270° West 481 554 36,000  Level FlightAware ADS-B
Sun 06:00:29 PM 40.7260 -113.7850 270° West 481 554 36,000  Level FlightAware ADS-B
Sun 06:00:43 PM 40.7248 -113.8280 268° West 481 554 36,000  Level FlightAware ADS-B
Sun 06:01:13 PM 40.7209 -113.9160 267° West 480 552 36,000  Level FlightAware ADS-B
Sun 06:01:43 PM 40.7169 -114.0030 267° West 480 552 36,000  Level FlightAware ADS-B
Sun 06:02:14 PM 40.7132 -114.0920 267° West 481 554 36,000  Level FlightAware ADS-B
Sun 06:02:44 PM 40.7097 -114.1810 267° West 482 555 36,000  Level FlightAware ADS-B
Sun 06:03:15 PM 40.7063 -114.2700 267° West 482 555 36,000  Level FlightAware ADS-B
Sun 06:03:45 PM 40.7028 -114.3580 267° West 483 556 36,000  Level FlightAware ADS-B
Sun 06:04:19 PM 40.6988 -114.4580 267° West 483 556 36,000  Level FlightAware ADS-B
Sun 06:04:51 PM 40.6949 -114.5520 267° West 482 555 36,000  Level FlightAware ADS-B
Sun 06:05:21 PM 40.6911 -114.6400 267° West 480 552 36,000  Level FlightAware ADS-B
Sun 06:05:53 PM 40.6868 -114.7330 267° West 481 554 36,000  Level FlightAware ADS-B
Sun 06:06:24 PM 40.6827 -114.8230 267° West 482 555 36,000  Level FlightAware ADS-B
Sun 06:06:55 PM 40.6785 -114.9120 266° West 482 555 36,000  Level FlightAware ADS-B
Sun 06:07:25 PM 40.6743 -115.0020 267° West 479 551 36,000  Level FlightAware ADS-B
Sun 06:07:55 PM 40.6701 -115.0880 266° West 478 550 36,000  Level FlightAware ADS-B
Sun 06:08:26 PM 40.6658 -115.1770 266° West 480 552 36,000  Level FlightAware ADS-B
Sun 06:08:56 PM 40.6614 -115.2660 266° West 480 552 36,000  Level FlightAware ADS-B
Sun 06:09:28 PM 40.6567 -115.3590 266° West 479 551 36,000  Level FlightAware ADS-B
Sun 06:10:22 PM 40.6680 -115.2550 82° East 480 552 36,000  Level FlightAware ADS-B
Sun 06:12:13 PM 40.6314 -115.8360 265° West 477 549 36,000  Level FlightAware ADS-B
Sun 06:12:43 PM 40.6266 -115.9240 266° West 478 550 36,000  Level FlightAware ADS-B
Sun 06:13:13 PM 40.6217 -116.0110 266° West 479 551 36,000  Level FlightAware ADS-B
Sun 06:13:59 PM 40.6142 -116.1430 266° West 477 549 36,000  Level FlightAware ADS-B
Sun 06:14:39 PM 40.6075 -116.2428 266° West 478 550 36,000  Level Salt Lake Center
Sun 06:15:41 PM 40.5983 -116.4081 266° West 477 549 36,000  Level Salt Lake Center
Sun 06:16:42 PM 40.5867 -116.6025 266° West 480 552 36,000  Level Salt Lake Center
Sun 06:17:43 PM 40.5783 -116.7678 266° West 479 551 36,000  Level Salt Lake Center
Sun 06:18:45 PM 40.5650 -116.9606 265° West 482 555 36,000  Level Salt Lake Center
Sun 06:19:46 PM 40.5547 -117.1267 265° West 482 555 36,000  Level Salt Lake Center
Sun 06:25:43 PM 40.4790 -118.1750 265° West 480 552 36,000  Level FlightAware ADS-B
Sun 06:26:14 PM 40.4730 -118.2560 264° West 480 552 36,000  Level FlightAware ADS-B
Sun 06:26:50 PM 40.4640 -118.3630 264° West 479 551 36,000  Level FlightAware ADS-B
Sun 06:27:25 PM 40.4560 -118.4660 264° West 479 551 36,000  Level FlightAware ADS-B
Sun 06:28:03 PM 40.4480 -118.5700 264° West 478 550 36,000  Level FlightAware ADS-B
Sun 06:28:35 PM 40.4410 -118.6630 264° West 478 550 36,000  Level FlightAware ADS-B
Sun 06:29:11 PM 40.4320 -118.7720 264° West 476 548 36,000  Level FlightAware ADS-B
Sun 06:29:43 PM 40.4250 -118.8590 264° West 477 549 36,000  Level FlightAware ADS-B
Sun 06:30:23 PM 40.4150 -118.9850 264° West 474 545 36,000  Level FlightAware ADS-B
Sun 06:30:59 PM 40.4060 -119.0910 264° West 477 549 36,000  Level FlightAware ADS-B
Sun 06:31:33 PM 40.3980 -119.1870 264° West 479 551 36,000  Level FlightAware ADS-B
Sun 06:32:07 PM 40.3900 -119.2860 264° West 479 551 36,000  Level FlightAware ADS-B
Sun 06:32:50 PM 40.3790 -119.4070 263° West 480 552 36,000  Level FlightAware ADS-B
Sun 06:33:27 PM 40.3700 -119.5170 264° West 481 554 36,000  Level FlightAware ADS-B
Sun 06:33:58 PM 40.3620 -119.6050 263° West 479 551 36,000  Level FlightAware ADS-B
Sun 06:34:35 PM 40.3520 -119.7130 263° West 478 550 36,000  Level FlightAware ADS-B
Sun 06:35:09 PM 40.3450 -119.8090 265° West 478 550 36,000  Level FlightAware ADS-B
Sun 06:35:43 PM 40.3410 -119.9090 267° West 480 552 36,000  Level FlightAware ADS-B
Sun 06:36:20 PM 40.3390 -120.0130 269° West 481 554 36,000  Level FlightAware ADS-B
Sun 06:36:51 PM 40.3370 -120.1060 268° West 480 552 36,000  Level FlightAware ADS-B
Sun 06:37:29 PM 40.3340 -120.2110 268° West 481 554 36,000  Level FlightAware ADS-B
Sun 06:38:03 PM 40.3320 -120.3170 269° West 480 552 36,000 250 Level FlightAware ADS-B
Sun 06:38:41 PM 40.3290 -120.4250 268° West 481 554 36,300 667 Climbing FlightAware ADS-B
Sun 06:39:15 PM 40.3270 -120.5240 269° West 478 550 36,800 844 Climbing FlightAware ADS-B
Sun 06:39:45 PM 40.3240 -120.6090 267° West 476 548 37,200 686 Climbing FlightAware ADS-B
Sun 06:40:25 PM 40.3210 -120.7230 268° West 474 545 37,600 676 Climbing FlightAware ADS-B
Sun 06:40:56 PM 40.3180 -120.8080 267° West 472 543 38,000 343 Climbing FlightAware ADS-B
Sun 06:41:35 PM 40.3150 -120.9230 268° West 471 542 38,000  Level FlightAware ADS-B
Sun 06:42:06 PM 40.3120 -121.0090 267° West 471 542 38,000  Level FlightAware ADS-B
Sun 06:42:45 PM 40.3090 -121.1210 268° West 472 543 38,000  Level FlightAware ADS-B
Sun 06:43:16 PM 40.3060 -121.2080 267° West 470 541 38,000  Level FlightAware ADS-B
Sun 06:43:51 PM 40.3030 -121.3090 268° West 470 541 38,000  Level FlightAware ADS-B
Sun 06:44:26 PM 40.2990 -121.4070 267° West 470 541 38,000  Level FlightAware ADS-B
Sun 06:45:01 PM 40.2960 -121.5070 268° West 469 540 38,000  Level FlightAware ADS-B
Sun 06:45:36 PM 40.2920 -121.6050 267° West 470 541 38,000  Level FlightAware ADS-B
Sun 06:46:06 PM 40.2890 -121.6920 267° West 470 541 38,000  Level FlightAware ADS-B
Sun 06:46:48 PM 40.2850 -121.8030 267° West 468 539 38,000  Level FlightAware ADS-B
Sun 06:47:25 PM 40.2810 -121.9010 267° West 468 539 38,000  Level FlightAware ADS-B
Sun 06:47:55 PM 40.2770 -122.0010 267° West 468 539 38,000  Level FlightAware ADS-B
Sun 06:48:32 PM 40.2730 -122.1030 267° West 468 539 38,000  Level FlightAware ADS-B
Sun 06:49:05 PM 40.2690 -122.1990 267° West 468 539 38,000  Level FlightAware ADS-B
Sun 06:49:41 PM 40.2710 -122.3000 272° West 473 544 38,000  Level FlightAware ADS-B
Sun 06:50:20 PM 40.2750 -122.4140 273° West 474 545 38,000  Level FlightAware ADS-B
Sun 06:50:51 PM 40.2780 -122.5000 273° West 475 547 38,000  Level FlightAware ADS-B
Sun 06:51:30 PM 40.2820 -122.6140 273° West 474 545 38,000  Level FlightAware ADS-B
Sun 06:52:07 PM 40.2830 -122.6850 271° West 474 545 38,000  Level FlightAware ADS-B
Sun 06:52:45 PM 40.2860 -122.8280 272° West 474 545 38,000  Level FlightAware ADS-B
Sun 06:53:21 PM 40.2880 -122.9290 272° West 473 544 38,000  Level FlightAware ADS-B
Sun 06:53:57 PM 40.2900 -123.0290 272° West 476 548 38,000  Level FlightAware ADS-B
Sun 06:54:32 PM 40.2950 -123.1320 274° West 483 556 38,000  Level FlightAware ADS-B
Sun 06:55:10 PM 40.3190 -123.2440 286° West 498 573 38,000  Level FlightAware ADS-B
Sun 06:55:46 PM 40.3480 -123.3440 291° West 496 571 38,000  Level FlightAware ADS-B
Sun 06:56:22 PM 40.3770 -123.4430 291° West 491 565 38,000  Level FlightAware ADS-B
Sun 06:56:57 PM 40.4050 -123.5440 290° West 493 567 38,000  Level FlightAware ADS-B
Sun 06:57:37 PM 40.4370 -123.6550 291° West 493 567 38,000  Level FlightAware ADS-B
Sun 06:58:16 PM 40.4700 -123.7690 291° West 493 567 38,000  Level FlightAware ADS-B
Sun 06:58:52 PM 40.4970 -123.8660 290° West 492 566 38,000  Level FlightAware ADS-B
Sun 06:59:22 PM 40.5210 -123.9480 291° West 492 566 38,000  Level FlightAware ADS-B
Sun 06:59:57 PM 40.5490 -124.0480 290° West 491 565 38,000  Level FlightAware ADS-B
Sun 07:00:23 PM 40.5690 -124.1190 290° West 491 565 38,000  Level FlightAware ADS-B
Sun 07:01:01 PM 40.5970 -124.2210 290° West 489 563 38,000  Level FlightAware ADS-B
Sun 07:02:00 PM 40.6370 -124.3680 290° West 490 564 38,000  Level FlightAware ADS-B
Sun 07:02:33 PM 40.6580 -124.4470 289° West 490 564 38,000  Level FlightAware ADS-B
Sun 07:03:02 PM 40.6910 -124.5600 291° West 488 562 38,000  Level FlightAware ADS-B
Sun 07:03:51 PM 40.7220 -124.6770 289° West 488 562 38,000  Level FlightAware ADS-B
Sun 07:04:29 PM 40.7450 -124.7680 288° West 488 562 38,000  Level FlightAware ADS-B
Sun 07:05:09 PM 40.7700 -124.8640 289° West 488 562 38,000  Level FlightAware ADS-B
Sun 07:05:45 PM 40.7930 -124.9500 289° West 488 562 38,000  Level FlightAware ADS-B
Sun 07:06:21 PM 40.8150 -125.0370 289° West 488 562 38,000  Level FlightAware ADS-B
Sun 07:07:03 PM 40.8420 -125.1370 290° West 488 562 38,000  Level FlightAware ADS-B
Sun 07:07:46 PM 40.8680 -125.2410 288° West 488 562 38,000  Level FlightAware ADS-B
Sun 07:08:26 PM 40.8930 -125.3370 289° West 488 562 38,000  Level FlightAware ADS-B
Sun 07:09:01 PM 40.9150 -125.4210 289° West 488 562 38,000  Level FlightAware ADS-B
Sun 07:09:41 PM 40.9400 -125.5170 289° West 488 562 38,000  Level FlightAware ADS-B
Sun 07:10:28 PM 40.9700 -125.6300 289° West 488 562 38,000  Level FlightAware ADS-B
Sun 07:11:10 PM 40.9960 -125.7310 289° West 488 562 38,000  Level FlightAware ADS-B
Sun 07:11:54 PM 41.0230 -125.8360 289° West 488 562 38,000  Level FlightAware ADS-B
Sun 07:12:30 PM 41.0460 -125.9230 289° West 488 562 38,000  Level FlightAware ADS-B
Sun 07:13:15 PM 41.1400 -126.2472 289° West 482 555 38,000 -57 Level Seattle Center
Sun 07:14:16 PM 41.1819 -126.4156 288° West 482 555 37,900  Descending Seattle Center
Sun 07:15:17 PM 41.2228 -126.5831 288° West 480 552 38,000 50 Climbing Seattle Center
Sun 07:16:17 PM 41.2717 -126.7836 288° West 478 550 38,000  Level Seattle Center
Sun 07:18:00 PM 41.3339 -127.0740 288° West  Level FlightAware Approximate
Sun 07:21:30 PM 41.4667 -127.6500 288° West 474 545 38,000  Level Oakland Oceanic (ODAPS)
Sun 07:25:00 PM 41.6135 -128.2556 288° West  Level FlightAware Approximate
Sun 07:26:00 PM 41.6524 -128.4252 287° West  Level FlightAware Approximate
Sun 07:27:00 PM 41.7011 -128.6524 287° West 474 545 38,000  Level FlightAware Transoceanic
Sun 07:28:00 PM 41.7393 -128.8201 287° West 474 545 38,000  Level FlightAware Transoceanic
Sun 07:29:00 PM 41.7773 -128.9881 287° West 474 545 38,000  Level FlightAware Transoceanic
Sun 07:30:00 PM 41.8150 -129.1562 287° West 474 545 38,000  Level FlightAware Transoceanic
Sun 07:31:00 PM 41.8525 -129.3246 287° West 474 545 38,000  Level FlightAware Transoceanic
Sun 07:32:00 PM 41.8898 -129.4932 286° West 474 545 38,000  Level FlightAware Transoceanic
Sun 07:33:00 PM 41.9268 -129.6619 286° West 474 545 38,000  Level FlightAware Transoceanic
Sun 07:34:00 PM 41.9635 -129.8309 286° West 474 545 38,000  Level FlightAware Transoceanic
Sun 07:35:00 PM 42.0000 -130.0000 281° West 474 545 38,000  Level FlightAware Transoceanic
Sun 07:35:47 PM 41.9833 -129.9167 285° West 491 565 38,000  Level Oakland Oceanic (ODAPS)
Sun 07:36:00 PM 42.0241 -130.1665 281° West 474 545 38,000  Level FlightAware Transoceanic
Sun 07:36:11 PM 42.0000 -130.0000 281° West 469 540 38,000  Level Oakland Oceanic (ODAPS)
Sun 07:37:00 PM 42.0480 -130.3331 281° West 474 545 38,000  Level FlightAware Transoceanic
Sun 07:37:57 PM 42.0667 -130.4500 281° West 470 541 38,000  Level Oakland Oceanic (ODAPS)
Sun 07:38:00 PM 42.0716 -130.4998 281° West 474 545 38,000  Level FlightAware Transoceanic
Sun 07:38:27 PM 42.0833 -130.5333 281° West 470 541 38,000  Level Oakland Oceanic (ODAPS)
Sun 07:39:00 PM 42.0950 -130.6667 281° West 474 545 38,000  Level FlightAware Transoceanic
Sun 07:40:00 PM 42.1182 -130.8337 281° West 474 545 38,000  Level FlightAware Transoceanic
Sun 07:41:00 PM 42.1411 -131.0008 280° West 474 545 38,000  Level FlightAware Transoceanic
Sun 07:42:00 PM 42.1693 -131.2091 280° West 469 540 38,000  Level FlightAware Transoceanic
Sun 07:43:00 PM 42.1924 -131.3824 280° West 469 540 38,000  Level FlightAware Transoceanic
Sun 07:44:00 PM 42.2234 -131.5701 280° West 470 541 38,000  Level FlightAware Transoceanic
Sun 07:45:00 PM 42.2458 -131.7433 280° West 470 541 38,000  Level FlightAware Transoceanic
Sun 07:46:00 PM 42.2680 -131.9166 280° West 470 541 38,000  Level FlightAware Transoceanic
Sun 07:47:00 PM 42.2899 -132.0901 280° West 470 541 38,000  Level FlightAware Transoceanic
Sun 07:48:00 PM 42.3115 -132.2637 280° West 470 541 38,000  Level FlightAware Transoceanic
Sun 07:49:00 PM 42.3329 -132.4374 279° West 470 541 38,000  Level FlightAware Transoceanic
Sun 07:49:19 PM 42.3333 -132.4167 279° West 473 544 38,000  Level Oakland Oceanic (ODAPS)
Sun 07:50:00 PM 42.3540 -132.6112 279° West 470 541 38,000  Level FlightAware Transoceanic
Sun 07:51:00 PM 42.3749 -132.7852 279° West 470 541 38,000  Level FlightAware Transoceanic
Sun 07:52:00 PM 42.3955 -132.9592 279° West 470 541 38,000  Level FlightAware Transoceanic
Sun 07:53:00 PM 42.4159 -133.1334 279° West 470 541 38,000  Level FlightAware Transoceanic
Sun 07:54:00 PM 42.4359 -133.3077 279° West 470 541 38,000  Level FlightAware Transoceanic
Sun 07:55:00 PM 42.4562 -133.4642 279° West 473 544 38,000  Level FlightAware Transoceanic
Sun 07:56:00 PM 42.4758 -133.6392 279° West 473 544 38,000  Level FlightAware Transoceanic
Sun 07:57:00 PM 42.4951 -133.8143 278° West 473 544 38,000  Level FlightAware Transoceanic
Sun 07:58:00 PM 42.5141 -133.9895 278° West 473 544 38,000  Level FlightAware Transoceanic
Sun 07:59:00 PM 42.5329 -134.1648 278° West 473 544 38,000  Level FlightAware Transoceanic
Sun 08:00:00 PM 42.5513 -134.3402 278° West 473 544 38,000  Level FlightAware Transoceanic
Sun 08:01:00 PM 42.5696 -134.5157 278° West 473 544 38,000  Level FlightAware Transoceanic
Sun 08:02:00 PM 42.5875 -134.6913 278° West 473 544 38,000  Level FlightAware Transoceanic
Sun 08:03:00 PM 42.6052 -134.8671 278° West 473 544 38,000  Level FlightAware Transoceanic
Sun 08:03:12 PM 42.6000 -134.8667 278° West 469 540 38,000  Level Oakland Oceanic (ODAPS)
Sun 08:04:00 PM 42.6226 -135.0429 278° West 473 544 38,000  Level FlightAware Transoceanic
Sun 08:05:00 PM 42.6398 -135.2188 277° West 473 544 38,000  Level FlightAware Transoceanic
Sun 08:06:00 PM 42.6566 -135.3948 277° West 473 544 38,000  Level FlightAware Transoceanic
Sun 08:07:00 PM 42.6732 -135.5709 277° West 473 544 38,000  Level FlightAware Transoceanic
Sun 08:08:00 PM 42.6896 -135.7471 277° West 473 544 38,000  Level FlightAware Transoceanic
Sun 08:09:00 PM 42.7015 -135.9230 277° West 469 540 38,000  Level FlightAware Transoceanic
Sun 08:10:00 PM 42.7175 -136.0994 277° West 469 540 38,000  Level FlightAware Transoceanic
Sun 08:11:00 PM 42.7332 -136.2759 277° West 469 540 38,000  Level FlightAware Transoceanic
Sun 08:12:00 PM 42.7486 -136.4524 277° West 469 540 38,000  Level FlightAware Transoceanic
Sun 08:13:00 PM 42.7638 -136.6291 277° West 469 540 38,000  Level FlightAware Transoceanic
Sun 08:14:00 PM 42.7787 -136.8058 276° West 469 540 38,000  Level FlightAware Transoceanic
Sun 08:15:00 PM 42.7933 -136.9826 276° West 469 540 38,000  Level FlightAware Transoceanic
Sun 08:16:00 PM 42.8077 -137.1595 276° West 469 540 38,000  Level FlightAware Transoceanic
Sun 08:17:00 PM 42.8217 -137.3365 276° West 469 540 38,000  Level FlightAware Transoceanic
Sun 08:17:02 PM 42.8167 -137.2833 276° West 461 531 38,000  Level Oakland Oceanic (ODAPS)
Sun 08:18:00 PM 42.8355 -137.5136 276° West 469 540 38,000  Level FlightAware Transoceanic
Sun 08:19:00 PM 42.8491 -137.6907 276° West 469 540 38,000  Level FlightAware Transoceanic
Sun 08:20:00 PM 42.8623 -137.8679 276° West 469 540 38,000  Level FlightAware Transoceanic
Sun 08:21:00 PM 42.8753 -138.0452 276° West 469 540 38,000  Level FlightAware Transoceanic
Sun 08:22:00 PM 42.8880 -138.2226 276° West 469 540 38,000  Level FlightAware Transoceanic
Sun 08:23:00 PM 42.8929 -138.3002 275° West 461 531 38,000  Level FlightAware Transoceanic
Sun 08:24:00 PM 42.9048 -138.4699 275° West 461 531 38,000  Level FlightAware Transoceanic
Sun 08:25:00 PM 42.9164 -138.6396 275° West 461 531 38,000  Level FlightAware Transoceanic
Sun 08:26:00 PM 42.9277 -138.8095 275° West 461 531 38,000  Level FlightAware Transoceanic
Sun 08:27:00 PM 42.9388 -138.9794 275° West 461 531 38,000  Level FlightAware Transoceanic
Sun 08:28:00 PM 42.9496 -139.1493 275° West 461 531 38,000  Level FlightAware Transoceanic
Sun 08:29:00 PM 42.9602 -139.3194 275° West 461 531 38,000  Level FlightAware Transoceanic
Sun 08:30:00 PM 42.9705 -139.4894 275° West 461 531 38,000  Level FlightAware Transoceanic
Sun 08:30:55 PM 42.9833 -139.6500 274° West 444 511 38,000  Level Oakland Oceanic (ODAPS)
Sun 08:31:00 PM 42.9806 -139.6596 275° West 461 531 38,000  Level FlightAware Transoceanic
Sun 08:32:00 PM 42.9904 -139.8298 274° West 461 531 38,000  Level FlightAware Transoceanic
Sun 08:33:00 PM 43.0000 -140.0000 266° West 461 531 38,000  Level FlightAware Transoceanic
Sun 08:33:04 PM 43.0000 -140.0000 266° West 461 531 38,000  Level Oakland Oceanic (ODAPS)
Sun 08:34:00 PM 42.9902 -140.1748 266° West 461 531 38,000  Level FlightAware Transoceanic
Sun 08:35:00 PM 42.9801 -140.3495 265° West 461 531 38,000  Level FlightAware Transoceanic
Sun 08:36:00 PM 42.9698 -140.5241 265° West 461 531 38,000  Level FlightAware Transoceanic
Sun 08:37:00 PM 42.9592 -140.6987 265° West 444 511 38,000  Level FlightAware Transoceanic
Sun 08:38:00 PM 42.9484 -140.8733 265° West 444 511 38,000  Level FlightAware Transoceanic
Sun 08:39:00 PM 42.9372 -141.0477 265° West 461 531 38,000  Level FlightAware Transoceanic
Sun 08:40:00 PM 42.9259 -141.2221 265° West 461 531 38,000  Level FlightAware Transoceanic
Sun 08:41:00 PM 42.9142 -141.3965 265° West 461 531 38,000  Level FlightAware Transoceanic
Sun 08:42:00 PM 42.9023 -141.5708 265° West 461 531 38,000  Level FlightAware Transoceanic
Sun 08:43:00 PM 42.8901 -141.7450 264° West 461 531 38,000  Level FlightAware Transoceanic
Sun 08:44:00 PM 42.8777 -141.9191 264° West 461 531 38,000  Level FlightAware Transoceanic
Sun 08:44:48 PM 42.8667 -142.0333 264° West 461 531 38,000  Level Oakland Oceanic (ODAPS)
Sun 08:45:00 PM 42.8650 -142.0932 264° West 461 531 38,000  Level FlightAware Transoceanic
Sun 08:46:00 PM 42.8520 -142.2672 264° West 461 531 38,000  Level FlightAware Transoceanic
Sun 08:47:00 PM 42.8388 -142.4411 264° West 461 531 38,000  Level FlightAware Transoceanic
Sun 08:48:00 PM 42.8253 -142.6149 264° West 461 531 38,000  Level FlightAware Transoceanic
Sun 08:49:00 PM 42.8115 -142.7887 264° West 461 531 38,000  Level FlightAware Transoceanic
Sun 08:50:00 PM 42.7994 -142.9091 264° West 461 531 38,000  Level FlightAware Transoceanic
Sun 08:51:00 PM 42.7851 -143.0841 264° West 461 531 38,000  Level FlightAware Transoceanic
Sun 08:52:00 PM 42.7706 -143.2589 263° West 461 531 38,000  Level FlightAware Transoceanic
Sun 08:53:00 PM 42.7558 -143.4337 263° West 461 531 38,000  Level FlightAware Transoceanic
Sun 08:54:00 PM 42.7408 -143.6084 263° West 461 531 38,000  Level FlightAware Transoceanic
Sun 08:55:00 PM 42.7255 -143.7829 263° West 461 531 38,000  Level FlightAware Transoceanic
Sun 08:56:00 PM 42.7099 -143.9575 263° West 461 531 38,000  Level FlightAware Transoceanic
Sun 08:57:00 PM 42.6940 -144.1319 263° West 461 531 38,000  Level FlightAware Transoceanic
Sun 08:58:00 PM 42.6779 -144.3062 263° West 461 531 38,000  Level FlightAware Transoceanic
Sun 08:58:39 PM 42.6667 -144.4167 263° West 458 527 38,000  Level Oakland Oceanic (ODAPS)
Sun 08:59:00 PM 42.6616 -144.4804 263° West 461 531 38,000  Level FlightAware Transoceanic
Sun 09:00:00 PM 42.6449 -144.6546 263° West 461 531 38,000  Level FlightAware Transoceanic
Sun 09:01:00 PM 42.6280 -144.8286 262° West 461 531 38,000  Level FlightAware Transoceanic
Sun 09:02:00 PM 42.6109 -145.0026 262° West 461 531 38,000  Level FlightAware Transoceanic
Sun 09:03:00 PM 42.5934 -145.1765 262° West 461 531 38,000  Level FlightAware Transoceanic
Sun 09:04:00 PM 42.5657 -145.4403 262° West 458 527 38,000  Level FlightAware Transoceanic
Sun 09:05:00 PM 42.5480 -145.6106 262° West 458 527 38,000  Level FlightAware Transoceanic
Sun 09:06:00 PM 42.5300 -145.7807 262° West 458 527 38,000  Level FlightAware Transoceanic
Sun 09:07:00 PM 42.5118 -145.9508 262° West 458 527 38,000  Level FlightAware Transoceanic
Sun 09:08:00 PM 42.4933 -146.1208 262° West 458 527 38,000  Level FlightAware Transoceanic
Sun 09:09:00 PM 42.4746 -146.2907 261° West 458 527 38,000  Level FlightAware Transoceanic
Sun 09:10:00 PM 42.4557 -146.4604 261° West 458 527 38,000  Level FlightAware Transoceanic
Sun 09:11:00 PM 42.4364 -146.6301 261° West 458 527 38,000  Level FlightAware Transoceanic
Sun 09:12:00 PM 42.4170 -146.7997 261° West 458 527 38,000  Level FlightAware Transoceanic
Sun 09:12:31 PM 42.4333 -146.7500 261° West 444 511 38,000  Level Oakland Oceanic (ODAPS)
Sun 09:13:00 PM 42.3973 -146.9691 261° West 458 527 38,000  Level FlightAware Transoceanic
Sun 09:14:00 PM 42.3773 -147.1385 261° West 458 527 38,000  Level FlightAware Transoceanic
Sun 09:15:00 PM 42.3571 -147.3078 261° West 458 527 38,000  Level FlightAware Transoceanic
Sun 09:16:00 PM 42.3366 -147.4769 261° West 458 527 38,000  Level FlightAware Transoceanic
Sun 09:17:00 PM 42.3159 -147.6459 261° West 458 527 38,000  Level FlightAware Transoceanic
Sun 09:18:00 PM 42.3130 -147.7296 260° West 444 511 38,000  Level FlightAware Transoceanic
Sun 09:19:00 PM 42.2921 -147.8925 260° West 444 511 38,000  Level FlightAware Transoceanic
Sun 09:20:00 PM 42.2710 -148.0553 260° West 444 511 38,000  Level FlightAware Transoceanic
Sun 09:21:00 PM 42.2497 -148.2180 260° West 444 511 38,000  Level FlightAware Transoceanic
Sun 09:22:00 PM 42.2281 -148.3806 260° West 444 511 38,000  Level FlightAware Transoceanic
Sun 09:23:00 PM 42.2063 -148.5430 260° West 444 511 38,000  Level FlightAware Transoceanic
Sun 09:24:00 PM 42.1843 -148.7054 260° West 444 511 38,000  Level FlightAware Transoceanic
Sun 09:25:00 PM 42.1621 -148.8676 259° West 444 511 38,000  Level FlightAware Transoceanic
Sun 09:26:00 PM 42.1396 -149.0297 259° West 444 511 38,000  Level FlightAware Transoceanic
Sun 09:26:23 PM 42.1333 -149.0333 260° West 449 517 38,000  Level Oakland Oceanic (ODAPS)
Sun 09:27:00 PM 42.1169 -149.1918 259° West 444 511 38,000  Level FlightAware Transoceanic
Sun 09:28:00 PM 42.0940 -149.3536 259° West 444 511 38,000  Level FlightAware Transoceanic
Sun 09:29:00 PM 42.0708 -149.5154 259° West 444 511 38,000  Level FlightAware Transoceanic
Sun 09:30:00 PM 42.0475 -149.6771 259° West 444 511 38,000  Level FlightAware Transoceanic
Sun 09:31:00 PM 42.0238 -149.8386 259° West 444 511 38,000  Level FlightAware Transoceanic
Sun 09:32:00 PM 42.0000 -150.0000 266° West 449 517 38,000  Level FlightAware Transoceanic
Sun 09:32:15 PM 42.0000 -150.0000 266° West 455 524 38,000  Level Oakland Oceanic (ODAPS)
Sun 09:33:00 PM 41.9902 -150.1747 266° West 449 517 38,000  Level FlightAware Transoceanic
Sun 09:34:00 PM 41.9801 -150.3493 265° West 449 517 38,000  Level FlightAware Transoceanic
Sun 09:35:00 PM 41.9697 -150.5239 265° West 449 517 38,000  Level FlightAware Transoceanic
Sun 09:36:00 PM 41.9591 -150.6984 265° West 449 517 38,000  Level FlightAware Transoceanic
Sun 09:37:00 PM 41.9482 -150.8729 265° West 449 517 38,000  Level FlightAware Transoceanic
Sun 09:38:00 PM 41.9394 -151.0124 265° West 455 524 38,000  Level FlightAware Transoceanic
Sun 09:39:00 PM 41.9284 -151.1809 265° West 455 524 38,000  Level FlightAware Transoceanic
Sun 09:40:00 PM 41.9172 -151.3494 265° West 455 524 38,000  Level FlightAware Transoceanic
Sun 09:40:15 PM 41.9167 -151.3500 265° West 457 526 38,000  Level Oakland Oceanic (ODAPS)
Sun 09:41:00 PM 41.9057 -151.5179 265° West 455 524 38,000  Level FlightAware Transoceanic
Sun 09:42:00 PM 41.8940 -151.6862 265° West 455 524 38,000  Level FlightAware Transoceanic
Sun 09:43:00 PM 41.8820 -151.8545 264° West 455 524 38,000  Level FlightAware Transoceanic
Sun 09:44:00 PM 41.8698 -152.0227 264° West 455 524 38,000  Level FlightAware Transoceanic
Sun 09:45:00 PM 41.8574 -152.1909 264° West 455 524 38,000  Level FlightAware Transoceanic
Sun 09:46:00 PM 41.8442 -152.3595 264° West 457 526 38,000  Level FlightAware Transoceanic
Sun 09:47:00 PM 41.8313 -152.5275 264° West 457 526 38,000  Level FlightAware Transoceanic
Sun 09:48:00 PM 41.8181 -152.6955 264° West 457 526 38,000  Level FlightAware Transoceanic
Sun 09:49:00 PM 41.8047 -152.8634 264° West 457 526 38,000  Level FlightAware Transoceanic
Sun 09:50:00 PM 41.7911 -153.0312 264° West 457 526 38,000  Level FlightAware Transoceanic
Sun 09:51:00 PM 41.7771 -153.1989 264° West 457 526 38,000  Level FlightAware Transoceanic
Sun 09:52:00 PM 41.7630 -153.3666 263° West 457 526 38,000  Level FlightAware Transoceanic
Sun 09:53:00 PM 41.7486 -153.5342 263° West 457 526 38,000  Level FlightAware Transoceanic
Sun 09:54:00 PM 41.7340 -153.7017 263° West 457 526 38,000 1,818 Level FlightAware Transoceanic
Sun 09:54:06 PM 41.7333 -153.6667 263° West 464 534 40,000  Climbing Oakland Oceanic (ODAPS)
Sun 09:55:00 PM 41.7191 -153.8692 263° West 457 526 38,000 -1,053 Descending FlightAware Transoceanic
Sun 09:56:00 PM 41.7040 -154.0365 263° West 457 526 38,000  Level FlightAware Transoceanic
Sun 09:57:00 PM 41.6886 -154.2038 263° West 457 526 38,000  Level FlightAware Transoceanic
Sun 09:58:00 PM 41.6730 -154.3710 263° West 457 526 38,000  Level FlightAware Transoceanic
Sun 09:59:00 PM 41.6571 -154.5381 263° West 457 526 38,000 1,000 Level FlightAware Transoceanic
Sun 10:00:00 PM 41.6381 -154.7029 263° West 464 534 40,000 1,000 Climbing FlightAware Transoceanic
Sun 10:01:00 PM 41.6214 -154.8753 263° West 464 534 40,000  Level FlightAware Transoceanic
Sun 10:02:00 PM 41.6043 -155.0477 262° West 464 534 40,000  Level FlightAware Transoceanic
Sun 10:03:00 PM 41.5871 -155.2199 262° West 464 534 40,000  Level FlightAware Transoceanic
Sun 10:04:00 PM 41.5695 -155.3920 262° West 464 534 40,000  Level FlightAware Transoceanic
Sun 10:05:00 PM 41.5517 -155.5640 262° West 464 534 40,000  Level FlightAware Transoceanic
Sun 10:06:00 PM 41.5337 -155.7360 262° West 464 534 40,000  Level FlightAware Transoceanic
Sun 10:07:00 PM 41.5154 -155.9078 262° West 464 534 40,000  Level FlightAware Transoceanic
Sun 10:07:59 PM 41.5000 -156.0500 262° West 473 544 40,000  Level Oakland Oceanic (ODAPS)
Sun 10:08:00 PM 41.4968 -156.0796 262° West 464 534 40,000  Level FlightAware Transoceanic
Sun 10:09:00 PM 41.4780 -156.2512 262° West 464 534 40,000  Level FlightAware Transoceanic
Sun 10:10:00 PM 41.4589 -156.4228 262° West 464 534 40,000  Level FlightAware Transoceanic
Sun 10:11:00 PM 41.4396 -156.5942 261° West 464 534 40,000  Level FlightAware Transoceanic
Sun 10:12:00 PM 41.4200 -156.7656 261° West 464 534 40,000  Level FlightAware Transoceanic
Sun 10:13:00 PM 41.4001 -156.9368 261° West 464 534 40,000  Level FlightAware Transoceanic
Sun 10:14:00 PM 41.3826 -157.0862 261° West 473 544 40,000  Level FlightAware Transoceanic
Sun 10:15:00 PM 41.3621 -157.2585 261° West 473 544 40,000  Level FlightAware Transoceanic
Sun 10:16:00 PM 41.3414 -157.4307 261° West 473 544 40,000  Level FlightAware Transoceanic
Sun 10:17:00 PM 41.3204 -157.6028 261° West 473 544 40,000  Level FlightAware Transoceanic
Sun 10:18:00 PM 41.2992 -157.7748 261° West 473 544 40,000  Level FlightAware Transoceanic
Sun 10:19:00 PM 41.2777 -157.9467 260° West 473 544 40,000  Level FlightAware Transoceanic
Sun 10:20:00 PM 41.2560 -158.1184 260° West 473 544 40,000  Level FlightAware Transoceanic
Sun 10:21:00 PM 41.2340 -158.2901 260° West 473 544 40,000  Level FlightAware Transoceanic
Sun 10:21:51 PM 41.2167 -158.4833 260° West 485 558 40,000  Level Oakland Oceanic (ODAPS)
Sun 10:22:00 PM 41.2117 -158.4616 260° West 473 544 40,000  Level FlightAware Transoceanic
Sun 10:23:00 PM 41.1892 -158.6330 260° West 473 544 40,000  Level FlightAware Transoceanic
Sun 10:24:00 PM 41.1664 -158.8043 260° West 473 544 40,000  Level FlightAware Transoceanic
Sun 10:25:00 PM 41.1434 -158.9755 260° West 473 544 40,000  Level FlightAware Transoceanic
Sun 10:26:00 PM 41.1202 -159.1466 260° West 473 544 40,000  Level FlightAware Transoceanic
Sun 10:27:00 PM 41.0966 -159.3175 260° West 473 544 40,000  Level FlightAware Transoceanic
Sun 10:28:00 PM 41.0560 -159.6218 259° West 485 558 40,000  Level FlightAware Transoceanic
Sun 10:29:00 PM 41.0282 -159.8110 259° West 485 558 40,000  Level FlightAware Transoceanic
Sun 10:30:00 PM 41.0000 -160.0000 259° West 485 558 40,000  Level FlightAware Transoceanic
Sun 10:30:26 PM 41.0000 -160.0000 259° West 489 563 40,000  Level Oakland Oceanic (ODAPS)
Sun 10:31:00 PM 40.9729 -160.1771 259° West 485 558 40,000  Level FlightAware Transoceanic
Sun 10:32:00 PM 40.9456 -160.3541 258° West 485 558 40,000  Level FlightAware Transoceanic
Sun 10:33:00 PM 40.9180 -160.5309 258° West 485 558 40,000  Level FlightAware Transoceanic
Sun 10:34:00 PM 40.8902 -160.7076 258° West 485 558 40,000  Level FlightAware Transoceanic
Sun 10:35:00 PM 40.8621 -160.8842 258° West 485 558 40,000  Level FlightAware Transoceanic
Sun 10:35:43 PM 40.8500 -160.9500 258° West 496 571 40,000  Level Oakland Oceanic (ODAPS)
Sun 10:36:00 PM 40.8366 -161.0426 258° West 489 563 40,000  Level FlightAware Transoceanic
Sun 10:37:00 PM 40.8084 -161.2159 258° West 489 563 40,000  Level FlightAware Transoceanic
Sun 10:38:00 PM 40.7800 -161.3890 258° West 489 563 40,000  Level FlightAware Transoceanic
Sun 10:39:00 PM 40.7514 -161.5620 258° West 489 563 40,000  Level FlightAware Transoceanic
Sun 10:40:00 PM 40.7224 -161.7348 257° West 489 563 40,000  Level FlightAware Transoceanic
Sun 10:41:00 PM 40.6932 -161.9075 257° West 489 563 40,000  Level FlightAware Transoceanic
Sun 10:42:00 PM 40.6730 -162.0184 257° West 496 571 40,000  Level FlightAware Transoceanic
Sun 10:43:00 PM 40.6426 -162.1959 257° West 496 571 40,000  Level FlightAware Transoceanic
Sun 10:44:00 PM 40.6119 -162.3732 257° West 496 571 40,000  Level FlightAware Transoceanic
Sun 10:45:00 PM 40.5809 -162.5504 257° West 496 571 40,000  Level FlightAware Transoceanic
Sun 10:46:00 PM 40.5496 -162.7274 257° West 496 571 40,000  Level FlightAware Transoceanic
Sun 10:47:00 PM 40.5181 -162.9042 257° West 496 571 40,000  Level FlightAware Transoceanic
Sun 10:48:00 PM 40.4863 -163.0809 257° West 496 571 40,000  Level FlightAware Transoceanic
Sun 10:49:00 PM 40.4542 -163.2574 257° West 496 571 40,000  Level FlightAware Transoceanic
Sun 10:49:35 PM 40.4333 -163.4000 256° West 495 570 40,000  Level Oakland Oceanic (ODAPS)
Sun 10:50:00 PM 40.4218 -163.4337 256° West 496 571 40,000  Level FlightAware Transoceanic
Sun 10:51:00 PM 40.3892 -163.6099 256° West 496 571 40,000  Level FlightAware Transoceanic
Sun 10:52:00 PM 40.3564 -163.7859 256° West 496 571 40,000  Level FlightAware Transoceanic
Sun 10:53:00 PM 40.3232 -163.9617 256° West 496 571 40,000  Level FlightAware Transoceanic
Sun 10:54:00 PM 40.2898 -164.1374 256° West 496 571 40,000  Level FlightAware Transoceanic
Sun 10:55:00 PM 40.2374 -164.4329 256° West 495 570 40,000  Level FlightAware Transoceanic
Sun 10:56:00 PM 40.2039 -164.6045 256° West 495 570 40,000  Level FlightAware Transoceanic
Sun 10:57:00 PM 40.1701 -164.7758 255° West 495 570 40,000  Level FlightAware Transoceanic
Sun 10:58:00 PM 40.1360 -164.9471 255° West 495 570 40,000  Level FlightAware Transoceanic
Sun 10:59:00 PM 40.1017 -165.1181 255° West 495 570 40,000  Level FlightAware Transoceanic
Sun 11:00:00 PM 40.0672 -165.2890 255° West 495 570 40,000  Level FlightAware Transoceanic
Sun 11:01:00 PM 40.0324 -165.4597 255° West 495 570 40,000  Level FlightAware Transoceanic
Sun 11:02:00 PM 39.9973 -165.6302 255° West 495 570 40,000  Level FlightAware Transoceanic
Sun 11:03:00 PM 39.9620 -165.8006 255° West 495 570 40,000  Level FlightAware Transoceanic
Sun 11:03:26 PM 39.9500 -165.8167 255° West 499 574 40,000  Level Oakland Oceanic (ODAPS)
Sun 11:04:00 PM 39.9265 -165.9707 255° West 495 570 40,000  Level FlightAware Transoceanic
Sun 11:05:00 PM 39.8907 -166.1407 255° West 495 570 40,000  Level FlightAware Transoceanic
Sun 11:06:00 PM 39.8546 -166.3106 254° West 495 570 40,000  Level FlightAware Transoceanic
Sun 11:07:00 PM 39.8183 -166.4802 254° West 495 570 40,000  Level FlightAware Transoceanic
Sun 11:08:00 PM 39.7818 -166.6497 254° West 495 570 40,000  Level FlightAware Transoceanic
Sun 11:09:00 PM 39.7357 -166.8310 254° West 499 574 40,000  Level FlightAware Transoceanic
Sun 11:10:00 PM 39.6992 -166.9994 254° West 499 574 40,000  Level FlightAware Transoceanic
Sun 11:11:00 PM 39.6624 -167.1677 254° West 499 574 40,000  Level FlightAware Transoceanic
Sun 11:12:00 PM 39.6253 -167.3358 254° West 499 574 40,000  Level FlightAware Transoceanic
Sun 11:13:00 PM 39.5880 -167.5037 254° West 499 574 40,000  Level FlightAware Transoceanic
Sun 11:14:00 PM 39.5505 -167.6714 254° West 499 574 40,000  Level FlightAware Transoceanic
Sun 11:15:00 PM 39.5127 -167.8389 254° West 499 574 40,000  Level FlightAware Transoceanic
Sun 11:16:00 PM 39.4747 -168.0063 254° West 499 574 40,000  Level FlightAware Transoceanic
Sun 11:17:00 PM 39.4365 -168.1734 253° West 499 574 40,000  Level FlightAware Transoceanic
Sun 11:17:19 PM 39.4333 -168.2167 253° West 499 574 40,000  Level Oakland Oceanic (ODAPS)
Sun 11:18:00 PM 39.3979 -168.3404 253° West 499 574 40,000  Level FlightAware Transoceanic
Sun 11:19:00 PM 39.3592 -168.5072 253° West 499 574 40,000  Level FlightAware Transoceanic
Sun 11:20:00 PM 39.3203 -168.6738 253° West 499 574 40,000  Level FlightAware Transoceanic
Sun 11:21:00 PM 39.2810 -168.8403 253° West 499 574 40,000  Level FlightAware Transoceanic
Sun 11:22:00 PM 39.2416 -169.0065 253° West 499 574 40,000  Level FlightAware Transoceanic
Sun 11:23:00 PM 39.2003 -169.1921 253° West 499 574 40,000  Level FlightAware Transoceanic
Sun 11:24:00 PM 39.1607 -169.3541 252° West 499 574 40,000  Level FlightAware Transoceanic
Sun 11:25:00 PM 39.1209 -169.5158 252° West 499 574 40,000  Level FlightAware Transoceanic
Sun 11:26:00 PM 39.0808 -169.6774 252° West 499 574 40,000  Level FlightAware Transoceanic
Sun 11:27:00 PM 39.0405 -169.8388 252° West 499 574 40,000  Level FlightAware Transoceanic
Sun 11:27:45 PM 39.0000 -170.0000 259° West 494 568 40,000  Level Oakland Oceanic (ODAPS)
Sun 11:28:00 PM 39.0000 -170.0000 259° West 499 574 40,000  Level FlightAware Transoceanic
Sun 11:29:00 PM 38.9733 -170.1738 259° West 499 574 40,000  Level FlightAware Transoceanic
Sun 11:30:00 PM 38.9464 -170.3475 259° West 499 574 40,000  Level FlightAware Transoceanic
Sun 11:31:00 PM 38.9191 -170.5210 259° West 499 574 40,000  Level FlightAware Transoceanic
Sun 11:31:19 PM 38.9000 -170.6000 259° West 492 566 40,000  Level Oakland Oceanic (ODAPS)
Sun 11:32:00 PM 38.8917 -170.6944 258° West 499 574 40,000  Level FlightAware Transoceanic
Sun 11:33:00 PM 38.8640 -170.8677 258° West 499 574 40,000  Level FlightAware Transoceanic
Sun 11:34:00 PM 38.8360 -171.0409 258° West 494 568 40,000  Level FlightAware Transoceanic
Sun 11:35:00 PM 38.8078 -171.2139 258° West 494 568 40,000  Level FlightAware Transoceanic
Sun 11:36:00 PM 38.7793 -171.3867 258° West 494 568 40,000  Level FlightAware Transoceanic
Sun 11:37:00 PM 38.7328 -171.6296 258° West 492 566 40,000  Level FlightAware Transoceanic
Sun 11:38:00 PM 38.7040 -171.8007 258° West 492 566 40,000  Level FlightAware Transoceanic
Sun 11:39:00 PM 38.6751 -171.9717 258° West 492 566 40,000  Level FlightAware Transoceanic
Sun 11:40:00 PM 38.6458 -172.1425 258° West 492 566 40,000  Level FlightAware Transoceanic
Sun 11:41:00 PM 38.6163 -172.3132 257° West 492 566 40,000  Level FlightAware Transoceanic
Sun 11:42:00 PM 38.5866 -172.4838 257° West 492 566 40,000  Level FlightAware Transoceanic
Sun 11:43:00 PM 38.5566 -172.6542 257° West 492 566 40,000  Level FlightAware Transoceanic
Sun 11:44:00 PM 38.5264 -172.8245 257° West 492 566 40,000  Level FlightAware Transoceanic
Sun 11:45:00 PM 38.4959 -172.9946 257° West 492 566 40,000  Level FlightAware Transoceanic
Sun 11:45:03 PM 38.5000 -172.9667 257° West 487 560 40,000  Level Oakland Oceanic (ODAPS)
Sun 11:46:00 PM 38.4652 -173.1646 257° West 492 566 40,000  Level FlightAware Transoceanic
Sun 11:47:00 PM 38.4342 -173.3344 257° West 492 566 40,000  Level FlightAware Transoceanic
Sun 11:48:00 PM 38.4030 -173.5041 257° West 492 566 40,000  Level FlightAware Transoceanic
Sun 11:49:00 PM 38.3715 -173.6737 257° West 492 566 40,000  Level FlightAware Transoceanic
Sun 11:50:00 PM 38.3398 -173.8431 257° West 492 566 40,000  Level FlightAware Transoceanic
Sun 11:51:00 PM 38.3161 -173.9648 256° West 487 560 40,000  Level FlightAware Transoceanic
Sun 11:52:00 PM 38.2846 -174.1307 256° West 487 560 40,000  Level FlightAware Transoceanic
Sun 11:53:00 PM 38.2529 -174.2964 256° West 487 560 40,000  Level FlightAware Transoceanic
Sun 11:54:00 PM 38.2210 -174.4619 256° West 487 560 40,000  Level FlightAware Transoceanic
Sun 11:55:00 PM 38.1888 -174.6274 256° West 487 560 40,000  Level FlightAware Transoceanic
Sun 11:56:00 PM 38.1564 -174.7926 256° West 487 560 40,000  Level FlightAware Transoceanic
Sun 11:57:00 PM 38.1238 -174.9578 256° West 487 560 40,000  Level FlightAware Transoceanic
Sun 11:58:00 PM 38.0909 -175.1228 256° West 487 560 40,000  Level FlightAware Transoceanic
Sun 11:58:55 PM 38.0667 -175.2667 256° West 484 557 40,000  Level Oakland Oceanic (ODAPS)
Sun 11:59:00 PM 38.0578 -175.2876 256° West 487 560 40,000  Level FlightAware Transoceanic
Mon 12:00:00 AM 38.0245 -175.4523 256° West 487 560 40,000  Level FlightAware Transoceanic
Mon 12:01:00 AM 37.9909 -175.6168 255° West 487 560 40,000  Level FlightAware Transoceanic
Mon 12:02:00 AM 37.9571 -175.7812 255° West 487 560 40,000  Level FlightAware Transoceanic
Mon 12:03:00 AM 37.9231 -175.9454 255° West 487 560 40,000  Level FlightAware Transoceanic
Mon 12:04:00 AM 37.8889 -176.1095 255° West 487 560 40,000  Level FlightAware Transoceanic
Mon 12:05:00 AM 37.8616 -176.2570 255° West 484 557 40,000  Level FlightAware Transoceanic
Mon 12:06:00 AM 37.8266 -176.4215 255° West 484 557 40,000  Level FlightAware Transoceanic
Mon 12:07:00 AM 37.7914 -176.5858 255° West 484 557 40,000  Level FlightAware Transoceanic
Mon 12:08:00 AM 37.7559 -176.7500 255° West 484 557 40,000  Level FlightAware Transoceanic
Mon 12:09:00 AM 37.7203 -176.9141 255° West 484 557 40,000  Level FlightAware Transoceanic
Mon 12:10:00 AM 37.6844 -177.0780 254° West 484 557 40,000  Level FlightAware Transoceanic
Mon 12:11:00 AM 37.6483 -177.2417 254° West 484 557 40,000  Level FlightAware Transoceanic
Mon 12:12:00 AM 37.6119 -177.4052 254° West 484 557 40,000  Level FlightAware Transoceanic
Mon 12:12:47 AM 37.5833 -177.5167 254° West 476 548 40,000  Level Oakland Oceanic (ODAPS)
Mon 12:13:00 AM 37.5753 -177.5686 254° West 484 557 40,000  Level FlightAware Transoceanic
Mon 12:14:00 AM 37.5385 -177.7319 254° West 484 557 40,000  Level FlightAware Transoceanic
Mon 12:15:00 AM 37.5015 -177.8949 254° West 484 557 40,000  Level FlightAware Transoceanic
Mon 12:16:00 AM 37.4642 -178.0579 254° West 484 557 40,000  Level FlightAware Transoceanic
Mon 12:17:00 AM 37.4268 -178.2206 254° West 484 557 40,000  Level FlightAware Transoceanic
Mon 12:18:00 AM 37.3947 -178.3487 254° West 476 548 40,000  Level FlightAware Transoceanic
Mon 12:19:00 AM 37.3562 -178.5146 254° West 476 548 40,000  Level FlightAware Transoceanic
Mon 12:20:00 AM 37.3176 -178.6803 254° West 476 548 40,000  Level FlightAware Transoceanic
Mon 12:21:00 AM 37.2787 -178.8459 253° West 476 548 40,000  Level FlightAware Transoceanic
Mon 12:22:00 AM 37.2396 -179.0113 253° West 476 548 40,000  Level FlightAware Transoceanic
Mon 12:23:00 AM 37.2002 -179.1765 253° West 476 548 40,000  Level FlightAware Transoceanic
Mon 12:24:00 AM 37.1606 -179.3416 253° West 476 548 40,000  Level FlightAware Transoceanic
Mon 12:25:00 AM 37.1208 -179.5064 253° West 476 548 40,000  Level FlightAware Transoceanic
Mon 12:26:00 AM 37.0808 -179.6711 253° West 476 548 40,000  Level FlightAware Transoceanic
Mon 12:26:39 AM 37.0667 -179.7167 254° West 475 547 40,000  Level Oakland Oceanic (ODAPS)
Mon 12:27:00 AM 37.0405 -179.8356 253° West 476 548 40,000  Level FlightAware Transoceanic
Mon 12:28:00 AM 37.0000 -180.0000 266° West 476 548 40,000  Level FlightAware Transoceanic
Mon 12:28:31 AM 37.0000 180.0000 266° West 479 551 40,000  Level Oakland Oceanic (ODAPS)
Mon 12:29:00 AM 36.9902 179.8315 266° West 476 548 40,000  Level FlightAware Transoceanic
Mon 12:30:00 AM 36.9803 179.6630 266° West 476 548 40,000  Level FlightAware Transoceanic
Mon 12:31:00 AM 36.9700 179.4946 266° West 476 548 40,000  Level FlightAware Transoceanic
Mon 12:32:00 AM 36.9596 179.3262 266° West 475 547 40,000  Level FlightAware Transoceanic
Mon 12:33:00 AM 36.9488 179.1579 265° West 475 547 40,000  Level FlightAware Transoceanic
Mon 12:34:00 AM 36.9390 179.0061 265° West 479 551 40,000  Level FlightAware Transoceanic
Mon 12:35:00 AM 36.9280 178.8406 265° West 479 551 40,000  Level FlightAware Transoceanic
Mon 12:36:00 AM 36.9168 178.6752 265° West 479 551 40,000  Level FlightAware Transoceanic
Mon 12:37:00 AM 36.9054 178.5098 265° West 479 551 40,000  Level FlightAware Transoceanic
Mon 12:38:00 AM 36.8937 178.3445 265° West 479 551 40,000  Level FlightAware Transoceanic
Mon 12:39:00 AM 36.8818 178.1792 265° West 479 551 40,000  Level FlightAware Transoceanic
Mon 12:40:00 AM 36.8697 178.0140 265° West 479 551 40,000  Level FlightAware Transoceanic
Mon 12:40:39 AM 36.8667 178.0333 265° West 477 549 40,000  Level Oakland Oceanic (ODAPS)
Mon 12:41:00 AM 36.8574 177.8488 265° West 479 551 40,000  Level FlightAware Transoceanic
Mon 12:42:00 AM 36.8448 177.6837 265° West 479 551 40,000  Level FlightAware Transoceanic
Mon 12:43:00 AM 36.8320 177.5186 264° West 479 551 40,000  Level FlightAware Transoceanic
Mon 12:44:00 AM 36.8190 177.3536 264° West 479 551 40,000  Level FlightAware Transoceanic
Mon 12:45:00 AM 36.8057 177.1886 264° West 479 551 40,000  Level FlightAware Transoceanic
Mon 12:46:00 AM 36.7913 177.0605 264° West 477 549 40,000  Level FlightAware Transoceanic
Mon 12:47:00 AM 36.7780 176.8986 264° West 477 549 40,000  Level FlightAware Transoceanic
Mon 12:48:00 AM 36.7644 176.7367 264° West 477 549 40,000  Level FlightAware Transoceanic
Mon 12:49:00 AM 36.7506 176.5749 264° West 477 549 40,000  Level FlightAware Transoceanic
Mon 12:50:00 AM 36.7367 176.4131 264° West 477 549 40,000  Level FlightAware Transoceanic
Mon 12:51:00 AM 36.7225 176.2514 264° West 477 549 40,000  Level FlightAware Transoceanic
Mon 12:52:00 AM 36.7080 176.0898 264° West 477 549 40,000  Level FlightAware Transoceanic
Mon 12:53:00 AM 36.6934 175.9282 264° West 477 549 40,000  Level FlightAware Transoceanic
Mon 12:54:00 AM 36.6785 175.7666 263° West 477 549 40,000  Level FlightAware Transoceanic
Mon 12:54:22 AM 36.6833 175.7667 263° West 478 550 40,000  Level Oakland Oceanic (ODAPS)
Mon 12:55:00 AM 36.6634 175.6052 263° West 477 549 40,000  Level FlightAware Transoceanic
Mon 12:56:00 AM 36.6481 175.4438 263° West 477 549 40,000  Level FlightAware Transoceanic
Mon 12:57:00 AM 36.6326 175.2825 263° West 477 549 40,000  Level FlightAware Transoceanic
Mon 12:58:00 AM 36.6169 175.1212 263° West 477 549 40,000  Level FlightAware Transoceanic
Mon 12:59:00 AM 36.6009 174.9600 263° West 477 549 40,000  Level FlightAware Transoceanic
Mon 01:00:00 AM 36.5888 174.7988 263° West 478 550 40,000  Level FlightAware Transoceanic
Mon 01:01:00 AM 36.5723 174.6377 263° West 478 550 40,000  Level FlightAware Transoceanic
Mon 01:02:00 AM 36.5555 174.4767 263° West 478 550 40,000  Level FlightAware Transoceanic
Mon 01:03:00 AM 36.5386 174.3158 262° West 478 550 40,000  Level FlightAware Transoceanic
Mon 01:04:00 AM 36.5214 174.1549 262° West 478 550 40,000  Level FlightAware Transoceanic
Mon 01:05:00 AM 36.5040 173.9941 262° West 478 550 40,000  Level FlightAware Transoceanic
Mon 01:06:00 AM 36.4864 173.8334 262° West 478 550 40,000  Level FlightAware Transoceanic
Mon 01:07:00 AM 36.4686 173.6728 262° West 478 550 40,000  Level FlightAware Transoceanic
Mon 01:08:00 AM 36.4506 173.5122 262° West 478 550 40,000  Level FlightAware Transoceanic
Mon 01:08:17 AM 36.4500 173.5167 262° West 480 552 40,000  Level Oakland Oceanic (ODAPS)
Mon 01:09:00 AM 36.4323 173.3517 262° West 478 550 40,000  Level FlightAware Transoceanic
Mon 01:10:00 AM 36.4139 173.1913 262° West 478 550 40,000  Level FlightAware Transoceanic
Mon 01:11:00 AM 36.3952 173.0309 262° West 478 550 40,000  Level FlightAware Transoceanic
Mon 01:12:00 AM 36.3763 172.8707 262° West 478 550 40,000  Level FlightAware Transoceanic
Mon 01:13:00 AM 36.3572 172.7105 262° West 478 550 40,000  Level FlightAware Transoceanic
Mon 01:14:00 AM 36.3375 172.5536 261° West 480 552 40,000  Level FlightAware Transoceanic
Mon 01:15:00 AM 36.3180 172.3934 261° West 480 552 40,000  Level FlightAware Transoceanic
Mon 01:16:00 AM 36.2983 172.2332 261° West 480 552 40,000  Level FlightAware Transoceanic
Mon 01:17:00 AM 36.2784 172.0732 261° West 480 552 40,000  Level FlightAware Transoceanic
Mon 01:18:00 AM 36.2582 171.9132 261° West 480 552 40,000  Level FlightAware Transoceanic
Mon 01:19:00 AM 36.2379 171.7533 261° West 480 552 40,000  Level FlightAware Transoceanic
Mon 01:20:00 AM 36.2173 171.5934 261° West 480 552 40,000  Level FlightAware Transoceanic
Mon 01:21:00 AM 36.1965 171.4337 261° West 480 552 40,000  Level FlightAware Transoceanic
Mon 01:22:00 AM 36.1755 171.2741 261° West 480 552 40,000  Level FlightAware Transoceanic
Mon 01:22:07 AM 36.1667 171.2500 261° West 482 555 40,000  Level Oakland Oceanic (ODAPS)
Mon 01:23:00 AM 36.1543 171.1145 261° West 480 552 40,000  Level FlightAware Transoceanic
Mon 01:24:00 AM 36.1329 170.9550 261° West 480 552 40,000  Level FlightAware Transoceanic
Mon 01:25:00 AM 36.1113 170.7956 260° West 480 552 40,000  Level FlightAware Transoceanic
Mon 01:26:00 AM 36.0895 170.6363 260° West 480 552 40,000  Level FlightAware Transoceanic
Mon 01:27:00 AM 36.0674 170.4771 260° West 480 552 40,000  Level FlightAware Transoceanic
Mon 01:28:00 AM 36.0429 170.3120 260° West 482 555 40,000  Level FlightAware Transoceanic
Mon 01:29:00 AM 36.0215 170.1560 260° West 482 555 40,000  Level FlightAware Transoceanic
Mon 01:29:45 AM 36.0000 170.0000 266° West 492 566 40,000  Level Oakland Oceanic (ODAPS)
Mon 01:30:00 AM 36.0000 170.0000 266° West 482 555 40,000  Level FlightAware Transoceanic
Mon 01:31:00 AM 35.9900 169.8287 266° West 482 555 40,000  Level FlightAware Transoceanic
Mon 01:32:00 AM 35.9798 169.6574 266° West 482 555 40,000  Level FlightAware Transoceanic
Mon 01:33:00 AM 35.9693 169.4862 266° West 482 555 40,000  Level FlightAware Transoceanic
Mon 01:34:00 AM 35.9585 169.3150 266° West 482 555 40,000  Level FlightAware Transoceanic
Mon 01:35:00 AM 35.9485 169.1582 265° West 492 566 40,000  Level FlightAware Transoceanic
Mon 01:35:58 AM 35.9333 168.9500 265° West 495 570 40,000  Level Oakland Oceanic (ODAPS)
Mon 01:36:00 AM 35.9375 168.9899 265° West 492 566 40,000  Level FlightAware Transoceanic
Mon 01:37:00 AM 35.9262 168.8218 265° West 492 566 40,000  Level FlightAware Transoceanic
Mon 01:38:00 AM 35.9148 168.6536 265° West 492 566 40,000  Level FlightAware Transoceanic
Mon 01:39:00 AM 35.9030 168.4855 265° West 492 566 40,000  Level FlightAware Transoceanic
Mon 01:40:00 AM 35.8911 168.3175 265° West 492 566 40,000  Level FlightAware Transoceanic
Mon 01:41:00 AM 35.8789 168.1495 265° West 492 566 40,000  Level FlightAware Transoceanic
Mon 01:42:00 AM 35.8611 167.9272 265° West 495 570 40,000  Level FlightAware Transoceanic
Mon 01:43:00 AM 35.8482 167.7570 265° West 495 570 40,000  Level FlightAware Transoceanic
Mon 01:44:00 AM 35.8351 167.5867 265° West 495 570 40,000  Level FlightAware Transoceanic
Mon 01:45:00 AM 35.8218 167.4166 264° West 495 570 40,000  Level FlightAware Transoceanic
Mon 01:46:00 AM 35.8082 167.2465 264° West 495 570 40,000  Level FlightAware Transoceanic
Mon 01:47:00 AM 35.7943 167.0764 264° West 495 570 40,000  Level FlightAware Transoceanic
Mon 01:48:00 AM 35.7803 166.9065 264° West 495 570 40,000  Level FlightAware Transoceanic
Mon 01:49:00 AM 35.7659 166.7365 264° West 495 570 40,000  Level FlightAware Transoceanic
Mon 01:49:52 AM 35.7667 166.6333 264° West 495 570 40,000  Level Oakland Oceanic (ODAPS)
Mon 01:50:00 AM 35.7514 166.5667 264° West 495 570 40,000  Level FlightAware Transoceanic
Mon 01:51:00 AM 35.7366 166.3969 264° West 495 570 40,000  Level FlightAware Transoceanic
Mon 01:52:00 AM 35.7215 166.2271 264° West 495 570 40,000  Level FlightAware Transoceanic
Mon 01:53:00 AM 35.7063 166.0575 264° West 495 570 40,000  Level FlightAware Transoceanic
Mon 01:54:00 AM 35.6908 165.8879 264° West 495 570 40,000  Level FlightAware Transoceanic
Mon 01:55:00 AM 35.6750 165.7183 263° West 495 570 40,000  Level FlightAware Transoceanic
Mon 01:56:00 AM 35.6725 165.6050 263° West 495 570 40,000  Level FlightAware Transoceanic
Mon 01:57:00 AM 35.6559 165.4339 263° West 495 570 40,000  Level FlightAware Transoceanic
Mon 01:58:00 AM 35.6391 165.2628 263° West 495 570 40,000  Level FlightAware Transoceanic
Mon 01:59:00 AM 35.6221 165.0918 263° West 495 570 40,000  Level FlightAware Transoceanic
Mon 02:00:00 AM 35.6048 164.9209 263° West 495 570 40,000  Level FlightAware Transoceanic
Mon 02:01:00 AM 35.5873 164.7500 263° West 495 570 40,000  Level FlightAware Transoceanic
Mon 02:02:00 AM 35.5695 164.5792 263° West 495 570 40,000  Level FlightAware Transoceanic
Mon 02:03:00 AM 35.5515 164.4085 263° West 495 570 40,000  Level FlightAware Transoceanic
Mon 02:04:00 AM 35.5333 164.2379 262° West 495 570 40,000  Level FlightAware Transoceanic
Mon 02:05:00 AM 35.5148 164.0674 262° West 495 570 40,000  Level FlightAware Transoceanic
Mon 02:06:00 AM 35.4961 163.8969 262° West 495 570 40,000  Level FlightAware Transoceanic
Mon 02:07:00 AM 35.4771 163.7265 262° West 495 570 40,000  Level FlightAware Transoceanic
Mon 02:08:00 AM 35.4579 163.5562 262° West 495 570 40,000  Level FlightAware Transoceanic
Mon 02:09:00 AM 35.4385 163.3860 262° West 495 570 40,000  Level FlightAware Transoceanic
Mon 02:10:00 AM 35.4188 163.2158 262° West 495 570 40,000  Level FlightAware Transoceanic
Mon 02:11:00 AM 35.3989 163.0458 262° West 495 570 40,000  Level FlightAware Transoceanic
Mon 02:12:00 AM 35.3787 162.8758 262° West 495 570 40,000  Level FlightAware Transoceanic
Mon 02:13:00 AM 35.3584 162.7059 262° West 495 570 40,000  Level FlightAware Transoceanic
Mon 02:14:00 AM 35.3377 162.5361 261° West 495 570 40,000  Level FlightAware Transoceanic
Mon 02:15:00 AM 35.3169 162.3664 261° West 495 570 40,000  Level FlightAware Transoceanic
Mon 02:16:00 AM 35.2958 162.1968 261° West 495 570 40,000  Level FlightAware Transoceanic
Mon 02:17:00 AM 35.2744 162.0272 261° West 495 570 40,000  Level FlightAware Transoceanic
Mon 02:18:00 AM 35.2528 161.8578 261° West 495 570 40,000  Level FlightAware Transoceanic
Mon 02:19:00 AM 35.2310 161.6884 261° West 495 570 40,000  Level FlightAware Transoceanic
Mon 02:20:00 AM 35.2090 161.5191 261° West 495 570 40,000  Level FlightAware Transoceanic
Mon 02:21:00 AM 35.1867 161.3500 261° West 495 570 40,000  Level FlightAware Transoceanic
Mon 02:22:00 AM 35.1642 161.1809 261° West 495 570 40,000  Level FlightAware Transoceanic
Mon 02:23:00 AM 35.1414 161.0119 261° West 495 570 40,000  Level FlightAware Transoceanic
Mon 02:24:00 AM 35.1184 160.8430 261° West 495 570 40,000  Level FlightAware Transoceanic
Mon 02:25:00 AM 35.0952 160.6742 260° West 495 570 40,000  Level FlightAware Transoceanic
Mon 02:26:00 AM 35.0718 160.5055 260° West 495 570 40,000  Level FlightAware Transoceanic
Mon 02:27:00 AM 35.0481 160.3369 260° West 495 570 40,000  Level FlightAware Transoceanic
Mon 02:28:00 AM 35.0242 160.1684 260° West 495 570 40,000  Level FlightAware Transoceanic
Mon 02:29:00 AM 35.0000 160.0000 273° West 495 570 40,000  Level FlightAware Transoceanic
Mon 02:30:00 AM 35.0068 159.8308 273° West 495 570 40,000  Level FlightAware Transoceanic
Mon 02:31:00 AM 35.0134 159.6615 273° West 495 570 40,000  Level FlightAware Transoceanic
Mon 02:32:00 AM 35.0198 159.4922 273° West 495 570 40,000  Level FlightAware Transoceanic
Mon 02:33:00 AM 35.0259 159.3230 272° West 495 570 40,000  Level FlightAware Transoceanic
Mon 02:34:00 AM 35.0318 159.1536 272° West 495 570 40,000  Level FlightAware Transoceanic
Mon 02:35:00 AM 35.0375 158.9843 272° West 495 570 40,000  Level FlightAware Transoceanic
Mon 02:36:00 AM 35.0429 158.8149 272° West 495 570 40,000  Level FlightAware Transoceanic
Mon 02:37:00 AM 35.0481 158.6455 272° West 495 570 40,000  Level FlightAware Transoceanic
Mon 02:38:00 AM 35.0531 158.4761 272° West 495 570 40,000  Level FlightAware Transoceanic
Mon 02:39:00 AM 35.0578 158.3067 272° West 495 570 40,000  Level FlightAware Transoceanic
Mon 02:40:00 AM 35.0623 158.1372 272° West 495 570 40,000  Level FlightAware Transoceanic
Mon 02:41:00 AM 35.0665 157.9677 272° West 495 570 40,000  Level FlightAware Transoceanic
Mon 02:42:00 AM 35.0705 157.7982 272° West 495 570 40,000  Level FlightAware Transoceanic
Mon 02:43:00 AM 35.0743 157.6287 272° West 495 570 40,000  Level FlightAware Transoceanic
Mon 02:44:00 AM 35.0779 157.4592 271° West 495 570 40,000  Level FlightAware Transoceanic
Mon 02:45:00 AM 35.0812 157.2897 271° West 495 570 40,000  Level FlightAware Transoceanic
Mon 02:46:00 AM 35.0843 157.1201 271° West 495 570 40,000  Level FlightAware Transoceanic
Mon 02:47:00 AM 35.0871 156.9505 271° West 495 570 40,000  Level FlightAware Transoceanic
Mon 02:48:00 AM 35.0897 156.7810 271° West 495 570 40,000  Level FlightAware Transoceanic
Mon 02:49:00 AM 35.0920 156.6114 271° West 495 570 40,000  Level FlightAware Transoceanic
Mon 02:50:00 AM 35.0942 156.4418 271° West 495 570 40,000  Level FlightAware Transoceanic
Mon 02:51:00 AM 35.0961 156.2722 271° West 495 570 40,000  Level FlightAware Transoceanic
Mon 02:52:00 AM 35.0977 156.1026 271° West 495 570 40,000  Level FlightAware Transoceanic
Mon 02:53:00 AM 35.0991 155.9330 271° West 495 570 40,000  Level FlightAware Transoceanic
Mon 02:54:00 AM 35.1003 155.7633 270° West 495 570 40,000  Level FlightAware Transoceanic
Mon 02:55:00 AM 35.1012 155.5937 270° West 495 570 40,000  Level FlightAware Transoceanic
Mon 02:56:00 AM 35.1020 155.4241 270° West 495 570 40,000  Level FlightAware Transoceanic
Mon 02:57:00 AM 35.1024 155.2545 270° West 495 570 40,000  Level FlightAware Transoceanic
Mon 02:58:00 AM 35.1027 155.0848 270° West 495 570 40,000  Level FlightAware Transoceanic
Mon 02:59:00 AM 35.1027 154.9152 270° West 495 570 40,000  Level FlightAware Transoceanic
Mon 03:00:00 AM 35.1024 154.7455 270° West 495 570 40,000  Level FlightAware Transoceanic
Mon 03:01:00 AM 35.1020 154.5759 270° West 495 570 40,000  Level FlightAware Transoceanic
Mon 03:02:00 AM 35.1012 154.4063 270° West 495 570 40,000  Level FlightAware Transoceanic
Mon 03:03:00 AM 35.1003 154.2367 270° West 495 570 40,000  Level FlightAware Transoceanic
Mon 03:04:00 AM 35.0991 154.0670 269° West 495 570 40,000  Level FlightAware Transoceanic
Mon 03:05:00 AM 35.0977 153.8974 269° West 495 570 40,000  Level FlightAware Transoceanic
Mon 03:06:00 AM 35.0961 153.7278 269° West 495 570 40,000  Level FlightAware Transoceanic
Mon 03:07:00 AM 35.0942 153.5582 269° West 495 570 40,000  Level FlightAware Transoceanic
Mon 03:08:00 AM 35.0920 153.3886 269° West 495 570 40,000  Level FlightAware Transoceanic
Mon 03:09:00 AM 35.0897 153.2190 269° West 495 570 40,000  Level FlightAware Transoceanic
Mon 03:10:00 AM 35.0871 153.0495 269° West 495 570 40,000  Level FlightAware Transoceanic
Mon 03:11:00 AM 35.0843 152.8799 269° West 495 570 40,000  Level FlightAware Transoceanic
Mon 03:12:00 AM 35.0812 152.7103 269° West 495 570 40,000  Level FlightAware Transoceanic
Mon 03:13:00 AM 35.0779 152.5408 269° West 495 570 40,000  Level FlightAware Transoceanic
Mon 03:14:00 AM 35.0743 152.3713 268° West 495 570 40,000  Level FlightAware Transoceanic
Mon 03:15:00 AM 35.0705 152.2018 268° West 495 570 40,000  Level FlightAware Transoceanic
Mon 03:16:00 AM 35.0665 152.0323 268° West 495 570 40,000  Level FlightAware Transoceanic
Mon 03:17:00 AM 35.0623 151.8628 268° West 495 570 40,000  Level FlightAware Transoceanic
Mon 03:18:00 AM 35.0578 151.6933 268° West 495 570 40,000  Level FlightAware Transoceanic
Mon 03:19:00 AM 35.0531 151.5239 268° West 495 570 40,000  Level FlightAware Transoceanic
Mon 03:20:00 AM 35.0481 151.3545 268° West 495 570 40,000  Level FlightAware Transoceanic
Mon 03:21:00 AM 35.0429 151.1851 268° West 495 570 40,000  Level FlightAware Transoceanic
Mon 03:22:00 AM 35.0375 151.0157 268° West 495 570 40,000  Level FlightAware Transoceanic
Mon 03:23:00 AM 35.0318 150.8464 268° West 495 570 40,000  Level FlightAware Transoceanic
Mon 03:24:00 AM 35.0259 150.6770 268° West 495 570 40,000  Level FlightAware Transoceanic
Mon 03:25:00 AM 35.0198 150.5078 267° West 495 570 40,000  Level FlightAware Transoceanic
Mon 03:26:00 AM 35.0134 150.3385 267° West 495 570 40,000  Level FlightAware Transoceanic
Mon 03:27:00 AM 35.0068 150.1692 267° West 495 570 40,000  Level FlightAware Transoceanic
Mon 03:28:00 AM 35.0005 150.0113 267° West  Level FlightAware Approximate
Mon 03:29:00 AM 34.9939 149.8533 267° West  Level FlightAware Approximate
Mon 03:30:00 AM 35.0128 149.8653 277° West  Level FlightAware Approximate
Mon 03:31:00 AM 35.0276 149.7082 277° West  Level FlightAware Approximate
Mon 03:32:00 AM 35.0421 149.5510 276° West  Level FlightAware Approximate
Mon 03:33:00 AM 35.0565 149.3937 276° West  Level FlightAware Approximate
Mon 03:34:00 AM 35.0706 149.2364 276° West  Level FlightAware Approximate
Mon 03:35:00 AM 35.0845 149.0790 276° West  Level FlightAware Approximate
Mon 03:36:00 AM 35.0983 148.9216 276° West  Level FlightAware Approximate
Mon 03:37:00 AM 35.1118 148.7641 276° West  Level FlightAware Approximate
Mon 03:38:00 AM 35.1252 148.6066 276° West  Level FlightAware Approximate
Mon 03:39:00 AM 35.1383 148.4490 276° West  Level FlightAware Approximate
Mon 03:40:00 AM 35.1512 148.2914 276° West  Level FlightAware Approximate
Mon 03:41:00 AM 35.1639 148.1337 276° West  Level FlightAware Approximate
Mon 03:42:00 AM 35.1764 147.9760 276° West  Level FlightAware Approximate
Mon 03:43:00 AM 35.1887 147.8184 275° West  Level FlightAware Approximate
Mon 03:44:00 AM 35.2008 147.6608 275° West  Level FlightAware Approximate
Mon 03:45:00 AM 35.2127 147.5032 275° West  Level FlightAware Approximate
Mon 03:46:00 AM 35.2244 147.3455 275° West  Level FlightAware Approximate
Mon 03:47:00 AM 35.2359 147.1877 275° West  Level FlightAware Approximate
Mon 03:48:00 AM 35.2472 147.0300 275° West  Level FlightAware Approximate
Mon 03:49:00 AM 35.2582 146.8721 275° West  Level FlightAware Approximate
Mon 03:50:00 AM 35.2691 146.7143 275° West  Level FlightAware Approximate
Mon 03:51:00 AM 35.2797 146.5564 275° West  Level FlightAware Approximate
Mon 03:52:00 AM 35.2902 146.3984 275° West  Level FlightAware Approximate
Mon 03:53:00 AM 35.3004 146.2404 275° West  Level FlightAware Approximate
Mon 03:54:00 AM 35.3105 146.0824 274° West  Level FlightAware Approximate
Mon 03:55:00 AM 35.3153 145.9242 268° West  Level FlightAware Approximate
Mon 03:56:00 AM 35.3113 145.7657 268° West  Level FlightAware Approximate
Mon 03:57:00 AM 35.3072 145.6073 268° West  Level FlightAware Approximate
Mon 03:58:00 AM 35.3028 145.4489 268° West  Level FlightAware Approximate
Mon 03:59:00 AM 35.2978 145.2905 267° West  Level FlightAware Approximate
Mon 04:00:00 AM 35.2918 145.1322 267° West  Level FlightAware Approximate
Mon 04:01:00 AM 35.2856 144.9739 267° West  Level FlightAware Approximate
Mon 04:02:00 AM 35.2793 144.8156 267° West  Level FlightAware Approximate
Mon 04:03:00 AM 35.2727 144.6574 267° West  Level FlightAware Approximate
Mon 04:03:51 AM 35.2560 144.1500 267° West 481 554 40,000  Level FlightAware ADS-B
Mon 04:04:00 AM 35.2659 144.4992 267° West  Level FlightAware Approximate
Mon 04:04:29 AM 35.2520 144.0620 267° West 481 554 40,000  Level FlightAware ADS-B
Mon 04:05:05 AM 35.2480 143.9780 267° West 481 554 40,000  Level FlightAware ADS-B
Mon 04:05:56 AM 35.2480 143.7970 270° West 487 560 40,000  Level FlightAware ADS-B
Mon 04:06:31 AM 35.2620 143.7020 280° West 488 562 40,000  Level FlightAware ADS-B
Mon 04:07:08 AM 35.2770 143.6130 282° West 490 564 40,000 -90 Level FlightAware ADS-B
Mon 04:07:38 AM 35.2920 143.5240 282° West 485 558 39,900 -492 Descending FlightAware ADS-B
Mon 04:08:09 AM 35.3050 143.4490 282° West 484 557 39,500 -1,091 Descending FlightAware ADS-B
Mon 04:08:44 AM 35.3200 143.3600 282° West 478 550 38,700 -988 Descending FlightAware ADS-B
Mon 04:09:34 AM 35.3420 143.2300 282° West 480 552 38,100 -1,571 Descending FlightAware ADS-B
Mon 04:10:08 AM 35.3610 143.1260 283° West 485 558 36,500 -2,250 Descending FlightAware ADS-B
Mon 04:10:38 AM 35.3730 143.0510 281° West 487 560 35,700 -686 Descending FlightAware ADS-B
Mon 04:11:18 AM 35.3890 142.9590 282° West 487 560 35,700 -2,810 Level FlightAware ADS-B
Mon 04:11:57 AM 35.4090 142.8390 282° West 495 570 32,000 -4,160 Descending FlightAware ADS-B
Mon 04:12:33 AM 35.4270 142.7360 282° West 489 563 30,500 -2,444 Descending FlightAware ADS-B
Mon 04:13:18 AM 35.4480 142.6070 281° West 474 545 28,700 -2,259 Descending FlightAware ADS-B
Mon 04:13:58 AM 35.4650 142.5070 282° West 463 533 27,300 -2,043 Descending FlightAware ADS-B
Mon 04:14:52 AM 35.4850 142.3830 281° West 452 520 25,500 -2,233 Descending FlightAware ADS-B
Mon 04:15:24 AM 35.5000 142.2910 281° West 445 512 24,100 -2,382 Descending FlightAware ADS-B
Mon 04:16:00 AM 35.5150 142.2010 282° West 436 502 22,800 -2,197 Descending FlightAware ADS-B
Mon 04:16:35 AM 35.5280 142.1200 281° West 429 494 21,500 -1,975 Descending FlightAware ADS-B
Mon 04:17:19 AM 35.5500 142.0200 285° West 424 488 20,200 -1,500 Descending FlightAware ADS-B
Mon 04:17:55 AM 35.5720 141.9340 287° West 421 484 19,500 -1,000 Descending FlightAware ADS-B
Mon 04:18:25 AM 35.5890 141.8720 289° West 419 482 19,100 -938 Descending FlightAware ADS-B
Mon 04:18:59 AM 35.6090 141.7970 288° West 414 476 18,500 -986 Descending FlightAware ADS-B
Mon 04:19:38 AM 35.6320 141.7060 287° West 405 466 17,900 -1,000 Descending FlightAware ADS-B
Mon 04:20:11 AM 35.6520 141.6300 288° West 403 464 17,300 -1,015 Descending FlightAware ADS-B
Mon 04:20:43 AM 35.6700 141.5630 288° West 401 461 16,800 -1,378 Descending FlightAware ADS-B
Mon 04:21:25 AM 35.6930 141.4750 288° West 393 452 15,600 -1,833 Descending FlightAware ADS-B
Mon 04:21:55 AM 35.7100 141.4090 288° West 388 447 14,600 -2,000 Descending FlightAware ADS-B
Mon 04:22:34 AM 35.7300 141.3310 288° West 380 437 13,300 -1,886 Descending FlightAware ADS-B
Mon 04:23:05 AM 35.7460 141.2680 287° West 372 428 12,400 -1,791 Descending FlightAware ADS-B
Mon 04:23:41 AM 35.7650 141.1930 287° West 362 417 11,300 -1,233 Descending FlightAware ADS-B
Mon 04:24:18 AM 35.7850 141.1180 288° West 333 383 10,900 -575 Descending FlightAware ADS-B
Mon 04:24:54 AM 35.8000 141.0580 287° West 306 352 10,600 -507 Descending FlightAware ADS-B
Mon 04:25:29 AM 35.8140 141.0020 287° West 287 330 10,300 -514 Descending FlightAware ADS-B
Mon 04:26:04 AM 35.8280 140.9470 287° West 266 306 10,000 -667 Descending FlightAware ADS-B
Mon 04:26:23 AM 35.8350 140.9190 287° West 260 299 9,700 -900 Descending FlightAware ADS-B
Mon 04:26:44 AM 35.8430 140.8910 289° West 260 299 9,400 -1,024 Descending FlightAware ADS-B
Mon 04:27:04 AM 35.8550 140.8640 299° West 259 298 9,000 -1,029 Descending FlightAware ADS-B
Mon 04:27:19 AM 35.8630 140.8440 296° West 256 295 8,800 -857 Descending FlightAware ADS-B
Mon 04:27:39 AM 35.8750 140.8180 300° West 254 292 8,500 -1,067 Descending FlightAware ADS-B
Mon 04:28:04 AM 35.8900 140.7860 300° West 253 291 8,000 -1,029 Descending FlightAware ADS-B
Mon 04:28:14 AM 35.8950 140.7730 295° West 253 291 7,900 -1,029 Descending FlightAware ADS-B
Mon 04:28:39 AM 35.9100 140.7410 300° West 252 290 7,400 -800 Descending FlightAware ADS-B
Mon 04:28:59 AM 35.9210 140.7170 300° West 241 277 7,300 -300 Descending FlightAware ADS-B
Mon 04:29:19 AM 35.9320 140.6930 300° West 234 269 7,200 -600 Descending FlightAware ADS-B
Mon 04:29:39 AM 35.9420 140.6700 298° West 228 262 6,900 -857 Descending FlightAware ADS-B
Mon 04:29:54 AM 35.9500 140.6530 300° West 226 260 6,700 -857 Descending FlightAware ADS-B
Mon 04:30:14 AM 35.9600 140.6310 299° West 221 254 6,400 -1,029 Descending FlightAware ADS-B
Mon 04:30:29 AM 35.9680 140.6130 299° West 220 253 6,100 -500 Descending FlightAware ADS-B
Mon 04:30:50 AM 35.9780 140.5910 299° West 220 253 6,100  Level FlightAware ADS-B
Mon 04:31:09 AM 35.9880 140.5690 299° West 220 253 6,100  Level FlightAware ADS-B
Mon 04:31:24 AM 35.9930 140.5510 289° West 217 250 6,100  Level FlightAware ADS-B
Mon 04:31:39 AM 35.9940 140.5320 274° West 217 250 6,100  Level FlightAware ADS-B
Mon 04:32:09 AM 35.9930 140.4980 268° West 192 221 6,100 -120 Level FlightAware ADS-B
Mon 04:32:29 AM 35.9920 140.4760 267° West 184 212 6,000 -600 Descending FlightAware ADS-B
Mon 04:32:39 AM 35.9920 140.4660 270° West 183 211 5,800 -1,029 Descending FlightAware ADS-B
Mon 04:33:04 AM 35.9910 140.4400 267° West 183 211 5,400 -1,091 Descending FlightAware ADS-B
Mon 04:33:34 AM 35.9900 140.4090 268° West 183 211 4,800 -1,080 Descending FlightAware ADS-B
Mon 04:33:54 AM 35.9890 140.3890 266° West 183 211 4,500 -1,021 Descending FlightAware ADS-B
Mon 04:34:21 AM 35.9880 140.3580 268° West 180 207 4,000 -1,021 Descending FlightAware ADS-B
Mon 04:34:41 AM 35.9870 140.3380 266° West 179 206 3,700 -955 Descending FlightAware ADS-B
Mon 04:35:05 AM 35.9860 140.3140 267° West 178 205 3,300 -1,116 Descending FlightAware ADS-B
Mon 04:35:24 AM 35.9850 140.2950 266° West 179 206 2,900 -750 Descending FlightAware ADS-B
Mon 04:35:45 AM 35.9840 140.2730 267° West 176 203 2,800 -167 Descending FlightAware ADS-B
Mon 04:36:00 AM 35.9830 140.2590 265° West 167 192 2,800  Level FlightAware ADS-B
Mon 04:36:13 AM 35.9830 140.2460 270° West 165 190 2,800  Level FlightAware ADS-B
Mon 04:36:21 AM 35.9800 140.2390 242° Southwest 163 188 2,800  Level FlightAware ADS-B
Mon 04:36:29 AM 35.9770 140.2340 233° Southwest 161 185 2,800  Level FlightAware ADS-B
Mon 04:36:33 AM 35.9740 140.2330 195° South 162 186 2,800  Level FlightAware ADS-B
Mon 04:36:39 AM 35.9690 140.2310 198° South 164 189 2,800 214 Level FlightAware ADS-B
Mon 04:37:01 AM 35.9530 140.2390 158° South 177 204 2,900  Climbing FlightAware ADS-B
Mon 04:37:24 AM 35.9370 140.2510 149° Southeast 178 205 2,800  Descending FlightAware ADS-B
Mon 04:37:45 AM 35.9220 140.2620 149° Southeast 181 208 2,900 146 Climbing FlightAware ADS-B
Mon 04:38:05 AM 35.9070 140.2720 152° Southeast 179 206 2,900 -300 Level FlightAware ADS-B
Mon 04:38:25 AM 35.8930 140.2820 150° Southeast 180 207 2,700 -750 Descending FlightAware ADS-B
Mon 04:38:45 AM 35.8780 140.2930 149° Southeast 174 200 2,400 -933 Descending FlightAware ADS-B
Mon 04:39:10 AM 35.8620 140.3050 149° Southeast 161 185 2,000 -833 Descending FlightAware ADS-B
Mon 04:39:21 AM 35.8540 140.3100 153° Southeast 161 185 1,900 -774 Descending FlightAware ADS-B
Mon 04:39:41 AM 35.8420 140.3190 149° Southeast 159 183 1,600 -900 Descending FlightAware ADS-B
Mon 04:40:01 AM 35.8290 140.3290 148° Southeast 151 174 1,300 -714 Descending FlightAware ADS-B
Mon 04:40:23 AM 35.8170 140.3380 149° Southeast 143 165 1,100 -571 Descending FlightAware ADS-B
Mon 04:40:43 AM 35.8050 140.3460 152° Southeast 142 163 900 -682 Descending FlightAware ADS-B
Mon 04:41:07 AM 35.7920 140.3560 148° Southeast 139 160 600 -706 Descending FlightAware ADS-B
Mon 04:41:17 AM 35.7860 140.3600 152° Southeast 138 159 500 -360 Descending FlightAware ADS-B
Mon 04:41:57 AM 35.7670 140.3740 149° Southeast 138 159 300 -300 Descending FlightAware ADS-B

Login

Don't have an account? Register now (free) for customized features, flight alerts, and more!